Observation data for Palo Duro Canyon State Park Floor on 01/13/2018      Previous  Date  Next       Current Mesonet Observations  Soil Data  Daily Summary Page  Observations in Plain Language
KPD2 130601Z 29003KT M04/M14 A3044 RMK A01 T10371144  RH  043%=      5-min Rain = 0
KPD2 130602Z 30003KT M04/M14 A3044 RMK A01 T10381144  RH  044%=      5-min Rain = 0
KPD2 130603Z 30003KT M04/M14 A3044 RMK A01 T10401143  RH  044%=      5-min Rain = 0
KPD2 130604Z 30002KT M04/M14 A3044 RMK A01 T10401143  RH  045%=      5-min Rain = 0
KPD2 130605Z 30003KT M04/M14 A3044 RMK A01 T10411143  RH  045%=      5-min Rain = 0
KPD2 130606Z 31003KT M04/M14 A3044 RMK A01 T10421143  RH  045%=      5-min Rain = 0
KPD2 130607Z 31003KT M04/M14 A3044 RMK A01 T10421142  RH  046%=      5-min Rain = 0
KPD2 130608Z 30003KT M04/M14 A3043 RMK A01 T10421141  RH  046%=      5-min Rain = 0
KPD2 130609Z 31003KT M04/M14 A3043 RMK A01 T10421141  RH  046%=      5-min Rain = 0
KPD2 130610Z 31003KT M04/M14 A3044 RMK A01 T10421141  RH  046%=      5-min Rain = 0
KPD2 130611Z 31003KT M04/M14 A3044 RMK A01 T10411141  RH  046%=      5-min Rain = 0
KPD2 130612Z 30003KT M04/M14 A3044 RMK A01 T10411142  RH  045%=      5-min Rain = 0
KPD2 130613Z 30002KT M04/M14 A3044 RMK A01 T10411142  RH  045%=      5-min Rain = 0
KPD2 130614Z 30003KT M04/M14 A3044 RMK A01 T10411142  RH  045%=      5-min Rain = 0
KPD2 130615Z 30003KT M04/M14 A3044 RMK A01 T10411142  RH  045%=      5-min Rain = 0
KPD2 130616Z 29002KT M04/M14 A3044 RMK A01 T10421142  RH  045%=      5-min Rain = 0
KPD2 130617Z 28002KT M04/M14 A3044 RMK A01 T10421144  RH  045%=      5-min Rain = 0
KPD2 130618Z 29002KT M04/M14 A3044 RMK A01 T10431143  RH  045%=      5-min Rain = 0
KPD2 130619Z 29002KT M04/M14 A3044 RMK A01 T10431143  RH  046%=      5-min Rain = 0
KPD2 130620Z 29002KT M04/M14 A3044 RMK A01 T10441143  RH  046%=      5-min Rain = 0
KPD2 130621Z 31002KT M04/M14 A3044 RMK A01 T10441142  RH  046%=      5-min Rain = 0
KPD2 130622Z 32002KT M04/M14 A3044 RMK A01 T10441142  RH  046%=      5-min Rain = 0
KPD2 130623Z 33002KT M04/M14 A3044 RMK A01 T10441143  RH  046%=      5-min Rain = 0
KPD2 130624Z 34002KT M04/M14 A3044 RMK A01 T10441142  RH  046%=      5-min Rain = 0
KPD2 130625Z 33001KT M05/M14 A3044 RMK A01 T10451143  RH  046%=      5-min Rain = 0
KPD2 130626Z 30002KT M05/M14 A3044 RMK A01 T10451143  RH  047%=      5-min Rain = 0
KPD2 130627Z 30003KT M05/M14 A3044 RMK A01 T10461143  RH  046%=      5-min Rain = 0
KPD2 130628Z 30003KT M05/M14 A3044 RMK A01 T10461144  RH  047%=      5-min Rain = 0
KPD2 130629Z 29004KT M05/M14 A3044 RMK A01 T10461143  RH  047%=      5-min Rain = 0
KPD2 130630Z 28003KT M05/M14 A3044 RMK A01 T10461143  RH  047%=      5-min Rain = 0
KPD2 130631Z 28003KT M05/M14 A3044 RMK A01 T10471144  RH  047%=      5-min Rain = 0
KPD2 130632Z 30004KT M05/M15 A3044 RMK A01 T10481145  RH  047%=      5-min Rain = 0
KPD2 130633Z 29004KT M05/M14 A3044 RMK A01 T10481144  RH  047%=      5-min Rain = 0
KPD2 130634Z 29005KT M05/M14 A3044 RMK A01 T10491143  RH  048%=      5-min Rain = 0
KPD2 130635Z 29005KT M05/M14 A3044 RMK A01 T10491143  RH  048%=      5-min Rain = 0
KPD2 130636Z 30004KT M05/M14 A3044 RMK A01 T10491143  RH  048%=      5-min Rain = 0
KPD2 130637Z 30003KT M05/M14 A3044 RMK A01 T10491143  RH  048%=      5-min Rain = 0
KPD2 130638Z 30003KT M05/M14 A3044 RMK A01 T10491142  RH  048%=      5-min Rain = 0
KPD2 130639Z 29003KT M05/M14 A3044 RMK A01 T10491142  RH  048%=      5-min Rain = 0
KPD2 130640Z 29002KT M05/M14 A3044 RMK A01 T10491142  RH  048%=      5-min Rain = 0
KPD2 130641Z 30002KT M05/M14 A3044 RMK A01 T10491142  RH  048%=      5-min Rain = 0
KPD2 130642Z 30002KT M05/M14 A3044 RMK A01 T10491142  RH  048%=      5-min Rain = 0
KPD2 130643Z 29002KT M05/M14 A3044 RMK A01 T10491141  RH  048%=      5-min Rain = 0
KPD2 130644Z 28002KT M05/M14 A3044 RMK A01 T10481141  RH  048%=      5-min Rain = 0
KPD2 130645Z 28003KT M05/M14 A3044 RMK A01 T10481142  RH  048%=      5-min Rain = 0
KPD2 130646Z 29003KT M05/M14 A3044 RMK A01 T10481142  RH  048%=      5-min Rain = 0
KPD2 130647Z 29003KT M05/M14 A3044 RMK A01 T10481142  RH  048%=      5-min Rain = 0
KPD2 130648Z 28003KT M05/M14 A3044 RMK A01 T10481142  RH  048%=      5-min Rain = 0
KPD2 130649Z 29004KT M05/M14 A3044 RMK A01 T10481142  RH  048%=      5-min Rain = 0
KPD2 130650Z 28003KT M05/M14 A3044 RMK A01 T10491142  RH  048%=      5-min Rain = 0
KPD2 130651Z 28003KT M05/M14 A3044 RMK A01 T10491142  RH  048%=      5-min Rain = 0
KPD2 130652Z 29003KT M05/M14 A3044 RMK A01 T10491142  RH  048%=      5-min Rain = 0
KPD2 130653Z 30003KT M05/M14 A3044 RMK A01 T10491142  RH  048%=      5-min Rain = 0
KPD2 130654Z 30002KT M05/M14 A3044 RMK A01 T10481142  RH  048%=      5-min Rain = 0
KPD2 130655Z 29002KT M05/M14 A3044 RMK A01 T10491142  RH  048%=      5-min Rain = 0
KPD2 130656Z 30002KT M05/M14 A3044 RMK A01 T10491142  RH  048%=      5-min Rain = 0
KPD2 130657Z 30002KT M05/M14 A3044 RMK A01 T10491141  RH  048%=      5-min Rain = 0
KPD2 130658Z 32001KT M05/M14 A3044 RMK A01 T10491141  RH  048%=      5-min Rain = 0
KPD2 130659Z 34002KT M05/M14 A3044 RMK A01 T10481141  RH  048%=      5-min Rain = 0
KPD2 130700Z 32002KT M05/M14 A3044 RMK A01 T10481141  RH  048%=      5-min Rain = 0
KPD2 130701Z 32002KT M05/M14 A3044 RMK A01 T10481141  RH  048%=      5-min Rain = 0
KPD2 130702Z 33002KT M05/M14 A3044 RMK A01 T10481141  RH  048%=      5-min Rain = 0
KPD2 130703Z 33002KT M05/M14 A3044 RMK A01 T10471140  RH  048%=      5-min Rain = 0
KPD2 130704Z 31002KT M05/M14 A3044 RMK A01 T10461140  RH  048%=      5-min Rain = 0
KPD2 130705Z 32003KT M05/M14 A3044 RMK A01 T10461141  RH  048%=      5-min Rain = 0
KPD2 130706Z 32002KT M05/M14 A3044 RMK A01 T10471142  RH  048%=      5-min Rain = 0
KPD2 130707Z 32002KT M05/M14 A3044 RMK A01 T10471141  RH  048%=      5-min Rain = 0
KPD2 130708Z 30002KT M05/M14 A3044 RMK A01 T10471142  RH  048%=      5-min Rain = 0
KPD2 130709Z 30002KT M05/M14 A3044 RMK A01 T10471142  RH  047%=      5-min Rain = 0
KPD2 130710Z 29002KT M05/M14 A3044 RMK A01 T10481142  RH  048%=      5-min Rain = 0
KPD2 130711Z 29002KT M05/M14 A3044 RMK A01 T10481142  RH  048%=      5-min Rain = 0
KPD2 130712Z 28003KT M05/M14 A3044 RMK A01 T10491143  RH  048%=      5-min Rain = 0
KPD2 130713Z 27003KT M05/M14 A3044 RMK A01 T10491143  RH  048%=      5-min Rain = 0
KPD2 130714Z 27003KT M05/M14 A3044 RMK A01 T10491143  RH  048%=      5-min Rain = 0
KPD2 130715Z 27003KT M05/M14 A3044 RMK A01 T10501144  RH  048%=      5-min Rain = 0
KPD2 130716Z 27002KT M05/M14 A3045 RMK A01 T10501144  RH  048%=      5-min Rain = 0
KPD2 130717Z 27002KT M05/M14 A3045 RMK A01 T10511144  RH  048%=      5-min Rain = 0
KPD2 130718Z 26000KT M05/M14 A3045 RMK A01 T10521144  RH  048%=      5-min Rain = 0
KPD2 130719Z 30000KT M05/M14 A3045 RMK A01 T10521143  RH  049%=      5-min Rain = 0
KPD2 130720Z 01001KT M05/M14 A3045 RMK A01 T10521142  RH  049%=      5-min Rain = 0
KPD2 130721Z 01000KT M05/M14 A3045 RMK A01 T10521142  RH  049%=      5-min Rain = 0
KPD2 130722Z 01000KT M05/M14 A3045 RMK A01 T10521142  RH  049%=      5-min Rain = 0
KPD2 130723Z 33001KT M05/M14 A3045 RMK A01 T10521142  RH  049%=      5-min Rain = 0
KPD2 130724Z 33001KT M05/M14 A3045 RMK A01 T10521142  RH  049%=      5-min Rain = 0
KPD2 130725Z 00000KT M05/M14 A3045 RMK A01 T10521142  RH  049%=      5-min Rain = 0
KPD2 130726Z 00000KT M05/M14 A3045 RMK A01 T10511141  RH  049%=      5-min Rain = 0
KPD2 130727Z 00000KT M05/M14 A3045 RMK A01 T10501141  RH  049%=      5-min Rain = 0
KPD2 130728Z 00000KT M05/M14 A3045 RMK A01 T10501141  RH  049%=      5-min Rain = 0
KPD2 130729Z 00000KT M05/M14 A3045 RMK A01 T10491141  RH  049%=      5-min Rain = 0
KPD2 130730Z 00000KT M05/M14 A3045 RMK A01 T10481141  RH  048%=      5-min Rain = 0
KPD2 130731Z 00000KT M05/M14 A3045 RMK A01 T10481141  RH  048%=      5-min Rain = 0
KPD2 130732Z 00000KT M05/M14 A3045 RMK A01 T10471141  RH  048%=      5-min Rain = 0
KPD2 130733Z 00000KT M05/M14 A3045 RMK A01 T10471141  RH  048%=      5-min Rain = 0
KPD2 130734Z 00000KT M05/M14 A3045 RMK A01 T10461141  RH  048%=      5-min Rain = 0
KPD2 130735Z 00000KT M05/M14 A3045 RMK A01 T10461142  RH  047%=      5-min Rain = 0
KPD2 130736Z 00000KT M05/M14 A3045 RMK A01 T10461142  RH  047%=      5-min Rain = 0
KPD2 130737Z 00000KT M05/M14 A3045 RMK A01 T10461142  RH  047%=      5-min Rain = 0
KPD2 130738Z 01000KT M05/M14 A3045 RMK A01 T10461142  RH  047%=      5-min Rain = 0
KPD2 130739Z 35001KT M05/M14 A3045 RMK A01 T10461141  RH  047%=      5-min Rain = 0
KPD2 130740Z 32001KT M05/M14 A3045 RMK A01 T10461141  RH  047%=      5-min Rain = 0
KPD2 130741Z 32001KT M05/M14 A3045 RMK A01 T10461142  RH  047%=      5-min Rain = 0
KPD2 130742Z 31001KT M05/M14 A3045 RMK A01 T10471142  RH  047%=      5-min Rain = 0
KPD2 130743Z 31002KT M05/M14 A3045 RMK A01 T10471142  RH  047%=      5-min Rain = 0
KPD2 130744Z 32001KT M05/M14 A3045 RMK A01 T10481143  RH  047%=      5-min Rain = 0
KPD2 130745Z 34001KT M05/M14 A3045 RMK A01 T10481143  RH  048%=      5-min Rain = 0
KPD2 130746Z 30001KT M05/M14 A3045 RMK A01 T10491143  RH  048%=      5-min Rain = 0
KPD2 130747Z 30000KT M05/M14 A3045 RMK A01 T10501143  RH  048%=      5-min Rain = 0
KPD2 130748Z 34001KT M05/M14 A3045 RMK A01 T10501143  RH  048%=      5-min Rain = 0
KPD2 130749Z 34002KT M05/M14 A3045 RMK A01 T10501142  RH  048%=      5-min Rain = 0
KPD2 130750Z 00001KT M05/M14 A3045 RMK A01 T10501142  RH  048%=      5-min Rain = 0
KPD2 130751Z 01001KT M05/M14 A3045 RMK A01 T10501142  RH  048%=      5-min Rain = 0
KPD2 130752Z 35001KT M05/M14 A3045 RMK A01 T10501143  RH  048%=      5-min Rain = 0
KPD2 130753Z 32002KT M05/M14 A3045 RMK A01 T10501142  RH  049%=      5-min Rain = 0
KPD2 130754Z 30002KT M05/M14 A3045 RMK A01 T10511143  RH  048%=      5-min Rain = 0
KPD2 130755Z 32001KT M05/M14 A3045 RMK A01 T10511144  RH  048%=      5-min Rain = 0
KPD2 130756Z 31002KT M05/M14 A3045 RMK A01 T10511143  RH  049%=      5-min Rain = 0
KPD2 130757Z 31002KT M05/M14 A3045 RMK A01 T10521143  RH  049%=      5-min Rain = 0
KPD2 130758Z 31002KT M05/M14 A3044 RMK A01 T10521144  RH  049%=      5-min Rain = 0
KPD2 130759Z 32002KT M05/M14 A3044 RMK A01 T10521144  RH  049%=      5-min Rain = 0
KPD2 130800Z 32001KT M05/M14 A3044 RMK A01 T10531144  RH  049%=      5-min Rain = 0
KPD2 130801Z 33001KT M05/M14 A3044 RMK A01 T10541144  RH  049%=      5-min Rain = 0
KPD2 130802Z 33001KT M06/M14 A3044 RMK A01 T10551144  RH  049%=      5-min Rain = 0
KPD2 130803Z 33001KT M06/M14 A3044 RMK A01 T10551144  RH  050%=      5-min Rain = 0
KPD2 130804Z 33001KT M06/M14 A3044 RMK A01 T10561144  RH  050%=      5-min Rain = 0
KPD2 130805Z 33001KT M06/M14 A3044 RMK A01 T10561144  RH  050%=      5-min Rain = 0
KPD2 130806Z 32001KT M06/M14 A3044 RMK A01 T10561144  RH  050%=      5-min Rain = 0
KPD2 130807Z 29002KT M06/M15 A3044 RMK A01 T10571145  RH  050%=      5-min Rain = 0
KPD2 130808Z 29002KT M06/M15 A3045 RMK A01 T10581147  RH  050%=      5-min Rain = 0
KPD2 130809Z 28002KT M06/M15 A3045 RMK A01 T10591148  RH  050%=      5-min Rain = 0
KPD2 130810Z 28002KT M06/M15 A3045 RMK A01 T10601148  RH  050%=      5-min Rain = 0
KPD2 130811Z 28002KT M06/M15 A3045 RMK A01 T10611148  RH  050%=      5-min Rain = 0
KPD2 130812Z 28001KT M06/M15 A3045 RMK A01 T10611147  RH  051%=      5-min Rain = 0
KPD2 130813Z 28001KT M06/M15 A3045 RMK A01 T10621146  RH  051%=      5-min Rain = 0
KPD2 130814Z 28002KT M06/M15 A3045 RMK A01 T10611145  RH  051%=      5-min Rain = 0
KPD2 130815Z 28002KT M06/M15 A3045 RMK A01 T10611145  RH  052%=      5-min Rain = 0
KPD2 130816Z 28003KT M06/M15 A3045 RMK A01 T10611145  RH  052%=      5-min Rain = 0
KPD2 130817Z 27003KT M06/M15 A3045 RMK A01 T10611145  RH  051%=      5-min Rain = 0
KPD2 130818Z 28002KT M06/M15 A3045 RMK A01 T10621147  RH  051%=      5-min Rain = 0
KPD2 130819Z 29002KT M06/M15 A3046 RMK A01 T10631147  RH  051%=      5-min Rain = 0
KPD2 130820Z 30001KT M06/M15 A3046 RMK A01 T10631146  RH  052%=      5-min Rain = 0
KPD2 130821Z 31002KT M06/M15 A3046 RMK A01 T10631146  RH  052%=      5-min Rain = 0
KPD2 130822Z 32002KT M06/M15 A3046 RMK A01 T10641146  RH  052%=      5-min Rain = 0
KPD2 130823Z 32003KT M06/M15 A3046 RMK A01 T10641146  RH  052%=      5-min Rain = 0
KPD2 130824Z 31003KT M06/M15 A3046 RMK A01 T10641145  RH  052%=      5-min Rain = 0
KPD2 130825Z 30003KT M06/M15 A3046 RMK A01 T10641145  RH  052%=      5-min Rain = 0
KPD2 130826Z 32003KT M06/M15 A3046 RMK A01 T10641146  RH  052%=      5-min Rain = 0
KPD2 130827Z 31002KT M06/M15 A3046 RMK A01 T10641146  RH  052%=      5-min Rain = 0
KPD2 130828Z 31002KT M07/M15 A3046 RMK A01 T10651146  RH  052%=      5-min Rain = 0
KPD2 130829Z 29002KT M07/M15 A3046 RMK A01 T10651146  RH  053%=      5-min Rain = 0
KPD2 130830Z 29002KT M07/M15 A3046 RMK A01 T10651146  RH  053%=      5-min Rain = 0
KPD2 130831Z 30003KT M07/M15 A3046 RMK A01 T10651146  RH  052%=      5-min Rain = 0
KPD2 130832Z 31004KT M07/M15 A3046 RMK A01 T10651146  RH  052%=      5-min Rain = 0
KPD2 130833Z 30004KT M07/M15 A3046 RMK A01 T10651146  RH  053%=      5-min Rain = 0
KPD2 130834Z 31003KT M07/M15 A3046 RMK A01 T10651146  RH  053%=      5-min Rain = 0
KPD2 130835Z 32002KT M07/M15 A3046 RMK A01 T10651146  RH  053%=      5-min Rain = 0
KPD2 130836Z 31003KT M07/M15 A3046 RMK A01 T10661146  RH  053%=      5-min Rain = 0
KPD2 130837Z 30004KT M07/M15 A3046 RMK A01 T10661146  RH  053%=      5-min Rain = 0
KPD2 130838Z 30003KT M07/M15 A3046 RMK A01 T10661147  RH  053%=      5-min Rain = 0
KPD2 130839Z 29003KT M07/M15 A3046 RMK A01 T10661146  RH  053%=      5-min Rain = 0
KPD2 130840Z 30004KT M07/M15 A3046 RMK A01 T10651145  RH  053%=      5-min Rain = 0
KPD2 130841Z 30003KT M06/M14 A3046 RMK A01 T10641144  RH  053%=      5-min Rain = 0
KPD2 130842Z 32002KT M06/M14 A3046 RMK A01 T10641144  RH  053%=      5-min Rain = 0
KPD2 130843Z 30002KT M06/M15 A3046 RMK A01 T10641145  RH  053%=      5-min Rain = 0
KPD2 130844Z 32002KT M06/M14 A3046 RMK A01 T10631144  RH  053%=      5-min Rain = 0
KPD2 130845Z 33001KT M06/M14 A3046 RMK A01 T10631144  RH  053%=      5-min Rain = 0
KPD2 130846Z 32001KT M06/M14 A3046 RMK A01 T10621144  RH  052%=      5-min Rain = 0
KPD2 130847Z 30001KT M06/M14 A3046 RMK A01 T10621144  RH  052%=      5-min Rain = 0
KPD2 130848Z 33001KT M06/M14 A3046 RMK A01 T10621144  RH  052%=      5-min Rain = 0
KPD2 130849Z 33002KT M06/M14 A3046 RMK A01 T10611144  RH  052%=      5-min Rain = 0
KPD2 130850Z 31002KT M06/M14 A3046 RMK A01 T10611144  RH  052%=      5-min Rain = 0
KPD2 130851Z 32002KT M06/M15 A3046 RMK A01 T10611145  RH  052%=      5-min Rain = 0
KPD2 130852Z 32002KT M06/M15 A3046 RMK A01 T10611145  RH  052%=      5-min Rain = 0
KPD2 130853Z 33001KT M06/M15 A3046 RMK A01 T10621146  RH  051%=      5-min Rain = 0
KPD2 130854Z 33001KT M06/M15 A3046 RMK A01 T10631146  RH  051%=      5-min Rain = 0
KPD2 130855Z 34001KT M06/M15 A3046 RMK A01 T10631147  RH  051%=      5-min Rain = 0
KPD2 130856Z 35002KT M06/M15 A3046 RMK A01 T10641147  RH  052%=      5-min Rain = 0
KPD2 130857Z 36002KT M06/M15 A3046 RMK A01 T10641146  RH  052%=      5-min Rain = 0
KPD2 130858Z 00002KT M06/M15 A3046 RMK A01 T10641146  RH  052%=      5-min Rain = 0
KPD2 130859Z 35001KT M06/M15 A3046 RMK A01 T10641145  RH  053%=      5-min Rain = 0
KPD2 130900Z 35001KT M07/M15 A3046 RMK A01 T10651146  RH  052%=      5-min Rain = 0
KPD2 130901Z 33002KT M07/M15 A3046 RMK A01 T10651148  RH  052%=      5-min Rain = 0
KPD2 130902Z 32002KT M07/M15 A3046 RMK A01 T10661148  RH  052%=      5-min Rain = 0
KPD2 130903Z 32002KT M07/M15 A3046 RMK A01 T10661147  RH  053%=      5-min Rain = 0
KPD2 130904Z 32001KT M07/M15 A3046 RMK A01 T10661146  RH  053%=      5-min Rain = 0
KPD2 130905Z 00000KT M07/M15 A3046 RMK A01 T10661148  RH  052%=      5-min Rain = 0
KPD2 130906Z 00000KT M07/M15 A3046 RMK A01 T10671148  RH  053%=      5-min Rain = 0
KPD2 130907Z 30000KT M07/M15 A3046 RMK A01 T10671147  RH  053%=      5-min Rain = 0
KPD2 130908Z 00000KT M07/M15 A3046 RMK A01 T10681147  RH  053%=      5-min Rain = 0
KPD2 130909Z 00000KT M07/M15 A3046 RMK A01 T10681147  RH  053%=      5-min Rain = 0
KPD2 130910Z 00000KT M07/M15 A3046 RMK A01 T10691148  RH  053%=      5-min Rain = 0
KPD2 130911Z 30000KT M07/M15 A3046 RMK A01 T10691148  RH  053%=      5-min Rain = 0
KPD2 130912Z 30000KT M07/M15 A3046 RMK A01 T10691148  RH  054%=      5-min Rain = 0
KPD2 130913Z 00000KT M07/M15 A3046 RMK A01 T10701148  RH  054%=      5-min Rain = 0
KPD2 130914Z 00000KT M07/M15 A3047 RMK A01 T10701147  RH  054%=      5-min Rain = 0
KPD2 130915Z 30000KT M07/M15 A3047 RMK A01 T10701147  RH  054%=      5-min Rain = 0
KPD2 130916Z 00000KT M07/M15 A3047 RMK A01 T10711147  RH  055%=      5-min Rain = 0
KPD2 130917Z 00000KT M07/M15 A3047 RMK A01 T10711146  RH  055%=      5-min Rain = 0
KPD2 130918Z 00000KT M07/M15 A3047 RMK A01 T10711146  RH  055%=      5-min Rain = 0
KPD2 130919Z 30000KT M07/M15 A3047 RMK A01 T10711146  RH  055%=      5-min Rain = 0
KPD2 130920Z 30000KT M07/M15 A3047 RMK A01 T10701146  RH  055%=      5-min Rain = 0
KPD2 130921Z 30000KT M07/M15 A3047 RMK A01 T10711146  RH  055%=      5-min Rain = 0
KPD2 130922Z 00000KT M07/M15 A3047 RMK A01 T10711146  RH  055%=      5-min Rain = 0
KPD2 130923Z 00000KT M07/M15 A3047 RMK A01 T10711146  RH  055%=      5-min Rain = 0
KPD2 130924Z 00000KT M07/M15 A3047 RMK A01 T10711146  RH  055%=      5-min Rain = 0
KPD2 130925Z 30000KT M07/M15 A3047 RMK A01 T10711147  RH  055%=      5-min Rain = 0
KPD2 130926Z 30001KT M07/M15 A3047 RMK A01 T10721147  RH  055%=      5-min Rain = 0
KPD2 130927Z 30001KT M07/M15 A3047 RMK A01 T10721147  RH  055%=      5-min Rain = 0
KPD2 130928Z 29001KT M07/M15 A3047 RMK A01 T10721147  RH  055%=      5-min Rain = 0
KPD2 130929Z 29000KT M07/M15 A3047 RMK A01 T10721146  RH  055%=      5-min Rain = 0
KPD2 130930Z 00000KT M07/M15 A3047 RMK A01 T10721146  RH  055%=      5-min Rain = 0
KPD2 130931Z 00000KT M07/M15 A3047 RMK A01 T10721146  RH  056%=      5-min Rain = 0
KPD2 130932Z 00000KT M07/M15 A3048 RMK A01 T10721146  RH  056%=      5-min Rain = 0
KPD2 130933Z 29000KT M07/M15 A3048 RMK A01 T10721146  RH  056%=      5-min Rain = 0
KPD2 130934Z 00000KT M07/M15 A3048 RMK A01 T10711145  RH  056%=      5-min Rain = 0
KPD2 130935Z 00000KT M07/M15 A3048 RMK A01 T10711145  RH  055%=      5-min Rain = 0
KPD2 130936Z 00000KT M07/M15 A3048 RMK A01 T10711145  RH  055%=      5-min Rain = 0
KPD2 130937Z 00000KT M07/M15 A3048 RMK A01 T10701145  RH  055%=      5-min Rain = 0
KPD2 130938Z 29000KT M07/M15 A3048 RMK A01 T10701145  RH  055%=      5-min Rain = 0
KPD2 130939Z 29001KT M07/M15 A3048 RMK A01 T10701146  RH  055%=      5-min Rain = 0
KPD2 130940Z 29001KT M07/M15 A3048 RMK A01 T10701145  RH  055%=      5-min Rain = 0
KPD2 130941Z 31001KT M07/M15 A3048 RMK A01 T10701145  RH  055%=      5-min Rain = 0
KPD2 130942Z 29001KT M07/M14 A3048 RMK A01 T10701144  RH  055%=      5-min Rain = 0
KPD2 130943Z 30002KT M07/M14 A3048 RMK A01 T10691144  RH  055%=      5-min Rain = 0
KPD2 130944Z 30002KT M07/M14 A3048 RMK A01 T10691144  RH  055%=      5-min Rain = 0
KPD2 130945Z 30002KT M07/M15 A3048 RMK A01 T10691145  RH  055%=      5-min Rain = 0
KPD2 130946Z 30002KT M07/M15 A3049 RMK A01 T10691146  RH  055%=      5-min Rain = 0
KPD2 130947Z 30002KT M07/M15 A3049 RMK A01 T10701146  RH  055%=      5-min Rain = 0
KPD2 130948Z 30002KT M07/M15 A3049 RMK A01 T10701146  RH  055%=      5-min Rain = 0
KPD2 130949Z 31001KT M07/M15 A3049 RMK A01 T10711146  RH  055%=      5-min Rain = 0
KPD2 130950Z 31000KT M07/M15 A3049 RMK A01 T10711146  RH  055%=      5-min Rain = 0
KPD2 130951Z 31000KT M07/M15 A3049 RMK A01 T10721147  RH  055%=      5-min Rain = 0
KPD2 130952Z 31000KT M07/M15 A3049 RMK A01 T10731147  RH  055%=      5-min Rain = 0
KPD2 130953Z 30001KT M07/M15 A3049 RMK A01 T10731147  RH  056%=      5-min Rain = 0
KPD2 130954Z 29001KT M07/M15 A3049 RMK A01 T10731146  RH  056%=      5-min Rain = 0
KPD2 130955Z 28002KT M07/M15 A3049 RMK A01 T10731145  RH  056%=      5-min Rain = 0
KPD2 130956Z 29002KT M07/M15 A3049 RMK A01 T10721146  RH  056%=      5-min Rain = 0
KPD2 130957Z 30003KT M07/M15 A3049 RMK A01 T10731146  RH  056%=      5-min Rain = 0
KPD2 130958Z 31002KT M07/M15 A3049 RMK A01 T10721146  RH  056%=      5-min Rain = 0
KPD2 130959Z 31002KT M07/M15 A3049 RMK A01 T10721146  RH  056%=      5-min Rain = 0
KPD2 131000Z 31003KT M07/M15 A3049 RMK A01 T10721146  RH  056%=      5-min Rain = 0
KPD2 131001Z 32003KT M07/M15 A3049 RMK A01 T10731146  RH  056%=      5-min Rain = 0
KPD2 131002Z 33003KT M07/M15 A3049 RMK A01 T10731146  RH  056%=      5-min Rain = 0
KPD2 131003Z 34002KT M07/M15 A3049 RMK A01 T10731146  RH  056%=      5-min Rain = 0
KPD2 131004Z 36001KT M07/M15 A3049 RMK A01 T10731146  RH  056%=      5-min Rain = 0
KPD2 131005Z 01002KT M07/M15 A3049 RMK A01 T10731146  RH  056%=      5-min Rain = 0
KPD2 131006Z 36002KT M07/M15 A3049 RMK A01 T10731146  RH  056%=      5-min Rain = 0
KPD2 131007Z 33001KT M07/M15 A3049 RMK A01 T10731146  RH  056%=      5-min Rain = 0
KPD2 131008Z 32001KT M07/M15 A3049 RMK A01 T10731146  RH  056%=      5-min Rain = 0
KPD2 131009Z 30001KT M07/M14 A3049 RMK A01 T10721144  RH  056%=      5-min Rain = 0
KPD2 131010Z 30002KT M07/M14 A3049 RMK A01 T10711144  RH  056%=      5-min Rain = 0
KPD2 131011Z 29003KT M07/M14 A3049 RMK A01 T10701143  RH  056%=      5-min Rain = 0
KPD2 131012Z 29002KT M07/M14 A3049 RMK A01 T10691143  RH  056%=      5-min Rain = 0
KPD2 131013Z 29003KT M07/M14 A3049 RMK A01 T10691144  RH  055%=      5-min Rain = 0
KPD2 131014Z 29002KT M07/M15 A3049 RMK A01 T10681145  RH  055%=      5-min Rain = 0
KPD2 131015Z 29002KT M07/M15 A3049 RMK A01 T10681145  RH  055%=      5-min Rain = 0
KPD2 131016Z 29002KT M07/M15 A3049 RMK A01 T10681145  RH  055%=      5-min Rain = 0
KPD2 131017Z 29001KT M07/M15 A3049 RMK A01 T10691145  RH  055%=      5-min Rain = 0
KPD2 131018Z 31001KT M07/M14 A3049 RMK A01 T10691144  RH  055%=      5-min Rain = 0
KPD2 131019Z 35001KT M07/M14 A3048 RMK A01 T10691144  RH  055%=      5-min Rain = 0
KPD2 131020Z 01002KT M07/M14 A3048 RMK A01 T10691144  RH  055%=      5-min Rain = 0
KPD2 131021Z 00001KT M07/M14 A3048 RMK A01 T10691144  RH  055%=      5-min Rain = 0
KPD2 131022Z 35001KT M07/M14 A3048 RMK A01 T10691144  RH  055%=      5-min Rain = 0
KPD2 131023Z 34001KT M07/M14 A3048 RMK A01 T10681143  RH  055%=      5-min Rain = 0
KPD2 131024Z 34001KT M07/M14 A3048 RMK A01 T10681143  RH  055%=      5-min Rain = 0
KPD2 131025Z 34000KT M07/M15 A3048 RMK A01 T10681145  RH  055%=      5-min Rain = 0
KPD2 131026Z 00000KT M07/M15 A3048 RMK A01 T10691146  RH  054%=      5-min Rain = 0
KPD2 131027Z 00000KT M07/M15 A3048 RMK A01 T10691146  RH  055%=      5-min Rain = 0
KPD2 131028Z 00000KT M07/M15 A3048 RMK A01 T10701145  RH  055%=      5-min Rain = 0
KPD2 131029Z 12001KT M07/M15 A3048 RMK A01 T10711147  RH  055%=      5-min Rain = 0
KPD2 131030Z 12003KT M07/M15 A3049 RMK A01 T10721149  RH  054%=      5-min Rain = 0
KPD2 131031Z 12003KT M07/M15 A3049 RMK A01 T10741149  RH  055%=      5-min Rain = 0
KPD2 131032Z 12004KT M08/M15 A3049 RMK A01 T10751149  RH  055%=      5-min Rain = 0
KPD2 131033Z 12004KT M08/M15 A3049 RMK A01 T10751149  RH  055%=      5-min Rain = 0
KPD2 131034Z 13003KT M08/M15 A3049 RMK A01 T10761150  RH  056%=      5-min Rain = 0
KPD2 131035Z 13003KT M08/M15 A3049 RMK A01 T10771150  RH  056%=      5-min Rain = 0
KPD2 131036Z 13003KT M08/M15 A3049 RMK A01 T10771150  RH  056%=      5-min Rain = 0
KPD2 131037Z 14003KT M08/M15 A3049 RMK A01 T10781149  RH  057%=      5-min Rain = 0
KPD2 131038Z 13002KT M08/M15 A3049 RMK A01 T10771148  RH  057%=      5-min Rain = 0
KPD2 131039Z 13002KT M08/M15 A3049 RMK A01 T10771148  RH  057%=      5-min Rain = 0
KPD2 131040Z 13002KT M08/M15 A3049 RMK A01 T10771148  RH  057%=      5-min Rain = 0
KPD2 131041Z 12002KT M08/M15 A3049 RMK A01 T10761147  RH  057%=      5-min Rain = 0
KPD2 131042Z 12001KT M08/M15 A3049 RMK A01 T10761147  RH  057%=      5-min Rain = 0
KPD2 131043Z 12001KT M08/M15 A3049 RMK A01 T10761147  RH  057%=      5-min Rain = 0
KPD2 131044Z 12002KT M08/M15 A3049 RMK A01 T10751146  RH  057%=      5-min Rain = 0
KPD2 131045Z 12001KT M08/M15 A3049 RMK A01 T10751146  RH  057%=      5-min Rain = 0
KPD2 131046Z 15001KT M07/M15 A3049 RMK A01 T10741145  RH  057%=      5-min Rain = 0
KPD2 131047Z 16000KT M07/M14 A3049 RMK A01 T10741144  RH  057%=      5-min Rain = 0
KPD2 131048Z 00000KT M07/M14 A3049 RMK A01 T10731144  RH  057%=      5-min Rain = 0
KPD2 131049Z 00000KT M07/M15 A3049 RMK A01 T10731145  RH  056%=      5-min Rain = 0
KPD2 131050Z 16001KT M08/M15 A3049 RMK A01 T10751148  RH  056%=      5-min Rain = 0
KPD2 131051Z 16002KT M08/M15 A3049 RMK A01 T10771151  RH  055%=      5-min Rain = 0
KPD2 131052Z 16002KT M08/M15 A3049 RMK A01 T10801154  RH  055%=      5-min Rain = 0
KPD2 131053Z 32002KT M08/M15 A3049 RMK A01 T10811154  RH  056%=      5-min Rain = 0
KPD2 131054Z 32002KT M08/M15 A3049 RMK A01 T10821154  RH  056%=      5-min Rain = 0
KPD2 131055Z 32002KT M08/M15 A3049 RMK A01 T10831154  RH  057%=      5-min Rain = 0
KPD2 131056Z 32002KT M08/M15 A3049 RMK A01 T10841152  RH  058%=      5-min Rain = 0
KPD2 131057Z 32001KT M08/M15 A3049 RMK A01 T10841150  RH  059%=      5-min Rain = 0
KPD2 131058Z 32001KT M08/M15 A3049 RMK A01 T10841149  RH  059%=      5-min Rain = 0
KPD2 131059Z 32001KT M08/M15 A3049 RMK A01 T10831148  RH  059%=      5-min Rain = 0
KPD2 131100Z 32001KT M08/M15 A3049 RMK A01 T10831148  RH  059%=      5-min Rain = 0
KPD2 131101Z 32001KT M08/M15 A3049 RMK A01 T10821147  RH  059%=      5-min Rain = 0
KPD2 131102Z 32002KT M08/M15 A3049 RMK A01 T10811146  RH  059%=      5-min Rain = 0
KPD2 131103Z 32001KT M08/M15 A3049 RMK A01 T10811147  RH  059%=      5-min Rain = 0
KPD2 131104Z 35002KT M08/M15 A3049 RMK A01 T10801147  RH  059%=      5-min Rain = 0
KPD2 131105Z 35002KT M08/M15 A3049 RMK A01 T10801147  RH  059%=      5-min Rain = 0
KPD2 131106Z 34002KT M08/M15 A3049 RMK A01 T10801147  RH  059%=      5-min Rain = 0
KPD2 131107Z 35002KT M08/M15 A3049 RMK A01 T10801147  RH  058%=      5-min Rain = 0
KPD2 131108Z 35002KT M08/M15 A3049 RMK A01 T10801148  RH  058%=      5-min Rain = 0
KPD2 131109Z 34002KT M08/M15 A3049 RMK A01 T10801148  RH  058%=      5-min Rain = 0
KPD2 131110Z 32002KT M08/M15 A3049 RMK A01 T10801150  RH  057%=      5-min Rain = 0
KPD2 131111Z 32001KT M08/M15 A3049 RMK A01 T10811150  RH  057%=      5-min Rain = 0
KPD2 131112Z 31002KT M08/M15 A3049 RMK A01 T10801149  RH  058%=      5-min Rain = 0
KPD2 131113Z 31002KT M08/M15 A305 RMK A01 T10801148  RH  058%=      5-min Rain = 0
KPD2 131114Z 29003KT M08/M15 A305 RMK A01 T10791147  RH  058%=      5-min Rain = 0
KPD2 131115Z 29003KT M08/M15 A305 RMK A01 T10801148  RH  058%=      5-min Rain = 0
KPD2 131116Z 29003KT M08/M15 A305 RMK A01 T10821150  RH  058%=      5-min Rain = 0
KPD2 131117Z 29003KT M08/M15 A305 RMK A01 T10831152  RH  058%=      5-min Rain = 0
KPD2 131118Z 28003KT M09/M15 A305 RMK A01 T10851153  RH  058%=      5-min Rain = 0
KPD2 131119Z 27003KT M09/M15 A305 RMK A01 T10861154  RH  058%=      5-min Rain = 0
KPD2 131120Z 27003KT M09/M15 A305 RMK A01 T10871154  RH  058%=      5-min Rain = 0
KPD2 131121Z 26002KT M09/M15 A305 RMK A01 T10881154  RH  059%=      5-min Rain = 0
KPD2 131122Z 27002KT M09/M15 A305 RMK A01 T10891153  RH  060%=      5-min Rain = 0
KPD2 131123Z 32000KT M09/M15 A305 RMK A01 T10891152  RH  060%=      5-min Rain = 0
KPD2 131124Z 01001KT M09/M15 A305 RMK A01 T10891152  RH  060%=      5-min Rain = 0
KPD2 131125Z 01001KT M09/M15 A305 RMK A01 T10891151  RH  061%=      5-min Rain = 0
KPD2 131126Z 01002KT M09/M15 A305 RMK A01 T10881150  RH  061%=      5-min Rain = 0
KPD2 131127Z 00003KT M09/M15 A305 RMK A01 T10871149  RH  061%=      5-min Rain = 0
KPD2 131128Z 01003KT M09/M15 A305 RMK A01 T10871149  RH  061%=      5-min Rain = 0
KPD2 131129Z 01002KT M09/M15 A305 RMK A01 T10871149  RH  061%=      5-min Rain = 0
KPD2 131130Z 36002KT M09/M15 A305 RMK A01 T10871149  RH  061%=      5-min Rain = 0
KPD2 131131Z 34002KT M09/M15 A305 RMK A01 T10861148  RH  061%=      5-min Rain = 0
KPD2 131132Z 35002KT M09/M15 A305 RMK A01 T10851147  RH  061%=      5-min Rain = 0
KPD2 131133Z 32002KT M08/M15 A305 RMK A01 T10841145  RH  061%=      5-min Rain = 0
KPD2 131134Z 34001KT M08/M15 A305 RMK A01 T10831146  RH  061%=      5-min Rain = 0
KPD2 131135Z 34001KT M08/M15 A305 RMK A01 T10831146  RH  060%=      5-min Rain = 0
KPD2 131136Z 36001KT M08/M15 A305 RMK A01 T10821145  RH  060%=      5-min Rain = 0
KPD2 131137Z 35002KT M08/M15 A305 RMK A01 T10821146  RH  060%=      5-min Rain = 0
KPD2 131138Z 35002KT M08/M15 A305 RMK A01 T10821146  RH  060%=      5-min Rain = 0
KPD2 131139Z 36002KT M08/M15 A305 RMK A01 T10821146  RH  060%=      5-min Rain = 0
KPD2 131140Z 00002KT M08/M15 A305 RMK A01 T10821146  RH  060%=      5-min Rain = 0
KPD2 131141Z 34003KT M08/M15 A305 RMK A01 T10811146  RH  060%=      5-min Rain = 0
KPD2 131142Z 35003KT M08/M14 A305 RMK A01 T10791143  RH  060%=      5-min Rain = 0
KPD2 131143Z 33004KT M08/M14 A305 RMK A01 T10771142  RH  060%=      5-min Rain = 0
KPD2 131144Z 33002KT M08/M14 A3051 RMK A01 T10761142  RH  059%=      5-min Rain = 0
KPD2 131145Z 33003KT M08/M15 A3051 RMK A01 T10761145  RH  058%=      5-min Rain = 0
KPD2 131146Z 32003KT M08/M15 A3051 RMK A01 T10771147  RH  057%=      5-min Rain = 0
KPD2 131147Z 33003KT M08/M15 A3051 RMK A01 T10771147  RH  057%=      5-min Rain = 0
KPD2 131148Z 31003KT M08/M15 A3051 RMK A01 T10771147  RH  057%=      5-min Rain = 0
KPD2 131149Z 31003KT M08/M15 A3051 RMK A01 T10781148  RH  057%=      5-min Rain = 0
KPD2 131150Z 32002KT M08/M15 A3051 RMK A01 T10791149  RH  057%=      5-min Rain = 0
KPD2 131151Z 33002KT M08/M15 A3051 RMK A01 T10801149  RH  058%=      5-min Rain = 0
KPD2 131152Z 34002KT M08/M15 A3051 RMK A01 T10801148  RH  058%=      5-min Rain = 0
KPD2 131153Z 34002KT M08/M15 A3051 RMK A01 T10801147  RH  059%=      5-min Rain = 0
KPD2 131154Z 33002KT M08/M15 A3051 RMK A01 T10801147  RH  059%=      5-min Rain = 0
KPD2 131155Z 31002KT M08/M15 A3051 RMK A01 T10811147  RH  059%=      5-min Rain = 0
KPD2 131156Z 31003KT M08/M15 A3051 RMK A01 T10811147  RH  059%=      5-min Rain = 0
KPD2 131157Z 30002KT M08/M15 A3051 RMK A01 T10811148  RH  059%=      5-min Rain = 0
KPD2 131158Z 30002KT M08/M15 A3051 RMK A01 T10821149  RH  058%=      5-min Rain = 0
KPD2 131159Z 28002KT M08/M15 A3051 RMK A01 T10831151  RH  058%=      5-min Rain = 0
KPD2 131200Z 28001KT M08/M15 A3051 RMK A01 T10841151  RH  058%=      5-min Rain = 0
KPD2 131201Z 28001KT M08/M15 A3051 RMK A01 T10841150  RH  059%=      5-min Rain = 0
KPD2 131202Z 29001KT M09/M15 A3051 RMK A01 T10851150  RH  059%=      5-min Rain = 0
KPD2 131203Z 29003KT M09/M15 A3051 RMK A01 T10851150  RH  060%=      5-min Rain = 0
KPD2 131204Z 28004KT M09/M15 A3051 RMK A01 T10871151  RH  060%=      5-min Rain = 0
KPD2 131205Z 29004KT M09/M15 A3052 RMK A01 T10881151  RH  060%=      5-min Rain = 0
KPD2 131206Z 29003KT M09/M15 A3052 RMK A01 T10881151  RH  061%=      5-min Rain = 0
KPD2 131207Z 30002KT M09/M15 A3052 RMK A01 T10901152  RH  061%=      5-min Rain = 0
KPD2 131208Z 30003KT M09/M15 A3052 RMK A01 T10911152  RH  061%=      5-min Rain = 0
KPD2 131209Z 29003KT M09/M15 A3052 RMK A01 T10921152  RH  062%=      5-min Rain = 0
KPD2 131210Z 29002KT M09/M15 A3052 RMK A01 T10921151  RH  062%=      5-min Rain = 0
KPD2 131211Z 35001KT M09/M15 A3052 RMK A01 T10921151  RH  062%=      5-min Rain = 0
KPD2 131212Z 34001KT M09/M15 A3052 RMK A01 T10921150  RH  063%=      5-min Rain = 0
KPD2 131213Z 33002KT M09/M15 A3052 RMK A01 T10921150  RH  063%=      5-min Rain = 0
KPD2 131214Z 34002KT M09/M15 A3052 RMK A01 T10911147  RH  063%=      5-min Rain = 0
KPD2 131215Z 31001KT M09/M15 A3052 RMK A01 T10901147  RH  063%=      5-min Rain = 0
KPD2 131216Z 33002KT M09/M15 A3052 RMK A01 T10891147  RH  063%=      5-min Rain = 0
KPD2 131217Z 35002KT M09/M15 A3052 RMK A01 T10891146  RH  063%=      5-min Rain = 0
KPD2 131218Z 34002KT M09/M15 A3052 RMK A01 T10881146  RH  063%=      5-min Rain = 0
KPD2 131219Z 34001KT M09/M15 A3052 RMK A01 T10881146  RH  063%=      5-min Rain = 0
KPD2 131220Z 34000KT M09/M15 A3052 RMK A01 T10871146  RH  062%=      5-min Rain = 0
KPD2 131221Z 34000KT M09/M15 A3052 RMK A01 T10871147  RH  062%=      5-min Rain = 0
KPD2 131222Z 31001KT M09/M15 A3052 RMK A01 T10881147  RH  062%=      5-min Rain = 0
KPD2 131223Z 29002KT M09/M15 A3052 RMK A01 T10881148  RH  062%=      5-min Rain = 0
KPD2 131224Z 28001KT M09/M15 A3052 RMK A01 T10871147  RH  062%=      5-min Rain = 0
KPD2 131225Z 28001KT M09/M15 A3052 RMK A01 T10871147  RH  062%=      5-min Rain = 0
KPD2 131226Z 29001KT M09/M15 A3052 RMK A01 T10871148  RH  062%=      5-min Rain = 0
KPD2 131227Z 29002KT M09/M15 A3052 RMK A01 T10871148  RH  061%=      5-min Rain = 0
KPD2 131228Z 29002KT M09/M15 A3052 RMK A01 T10881149  RH  061%=      5-min Rain = 0
KPD2 131229Z 29002KT M09/M15 A3052 RMK A01 T10881149  RH  061%=      5-min Rain = 0
KPD2 131230Z 30002KT M09/M15 A3052 RMK A01 T10881148  RH  062%=      5-min Rain = 0
KPD2 131231Z 32002KT M09/M15 A3052 RMK A01 T10891148  RH  062%=      5-min Rain = 0
KPD2 131232Z 32002KT M09/M15 A3052 RMK A01 T10891149  RH  062%=      5-min Rain = 0
KPD2 131233Z 32001KT M09/M15 A3052 RMK A01 T10901149  RH  062%=      5-min Rain = 0
KPD2 131234Z 33001KT M09/M15 A3051 RMK A01 T10901149  RH  062%=      5-min Rain = 0
KPD2 131235Z 00002KT M09/M15 A3051 RMK A01 T10911150  RH  062%=      5-min Rain = 0
KPD2 131236Z 36002KT M09/M15 A3051 RMK A01 T10911149  RH  063%=      5-min Rain = 0
KPD2 131237Z 35003KT M09/M15 A3051 RMK A01 T10911149  RH  063%=      5-min Rain = 0
KPD2 131238Z 01002KT M09/M15 A3051 RMK A01 T10921149  RH  063%=      5-min Rain = 0
KPD2 131239Z 04002KT M09/M15 A3051 RMK A01 T10921148  RH  064%=      5-min Rain = 0
KPD2 131240Z 03001KT M09/M15 A3051 RMK A01 T10911146  RH  064%=      5-min Rain = 0
KPD2 131241Z 01001KT M09/M14 A3051 RMK A01 T10901144  RH  064%=      5-min Rain = 0
KPD2 131242Z 35002KT M09/M14 A3051 RMK A01 T10881144  RH  064%=      5-min Rain = 0
KPD2 131243Z 34002KT M09/M14 A3051 RMK A01 T10871143  RH  064%=      5-min Rain = 0
KPD2 131244Z 35002KT M09/M14 A3051 RMK A01 T10861143  RH  063%=      5-min Rain = 0
KPD2 131245Z 36001KT M09/M14 A3052 RMK A01 T10861144  RH  063%=      5-min Rain = 0
KPD2 131246Z 33001KT M09/M14 A3052 RMK A01 T10851144  RH  062%=      5-min Rain = 0
KPD2 131247Z 31000KT M09/M14 A3052 RMK A01 T10851144  RH  062%=      5-min Rain = 0
KPD2 131248Z 29001KT M09/M14 A3052 RMK A01 T10851144  RH  062%=      5-min Rain = 0
KPD2 131249Z 27002KT M09/M15 A3052 RMK A01 T10851146  RH  062%=      5-min Rain = 0
KPD2 131250Z 27002KT M09/M15 A3052 RMK A01 T10861148  RH  061%=      5-min Rain = 0
KPD2 131251Z 28002KT M09/M15 A3052 RMK A01 T10871149  RH  061%=      5-min Rain = 0
KPD2 131252Z 29002KT M09/M15 A3052 RMK A01 T10881148  RH  062%=      5-min Rain = 0
KPD2 131253Z 29003KT M09/M15 A3052 RMK A01 T10881147  RH  062%=      5-min Rain = 0
KPD2 131254Z 28003KT M09/M15 A3052 RMK A01 T10881146  RH  063%=      5-min Rain = 0
KPD2 131255Z 28003KT M09/M15 A3052 RMK A01 T10881147  RH  063%=      5-min Rain = 0
KPD2 131256Z 28003KT M09/M15 A3052 RMK A01 T10881146  RH  063%=      5-min Rain = 0
KPD2 131257Z 28003KT M09/M15 A3052 RMK A01 T10891147  RH  063%=      5-min Rain = 0
KPD2 131258Z 28003KT M09/M15 A3052 RMK A01 T10901147  RH  063%=      5-min Rain = 0
KPD2 131259Z 28003KT M09/M15 A3052 RMK A01 T10901146  RH  064%=      5-min Rain = 0
KPD2 131300Z 29003KT M09/M15 A3052 RMK A01 T10901147  RH  064%=      5-min Rain = 0
KPD2 131301Z 30001KT M09/M15 A3052 RMK A01 T10911147  RH  064%=      5-min Rain = 0
KPD2 131302Z 36000KT M09/M15 A3052 RMK A01 T10911147  RH  064%=      5-min Rain = 0
KPD2 131303Z 01002KT M09/M15 A3053 RMK A01 T10921147  RH  064%=      5-min Rain = 0
KPD2 131304Z 36002KT M09/M15 A3053 RMK A01 T10911146  RH  064%=      5-min Rain = 0
KPD2 131305Z 31003KT M09/M15 A3053 RMK A01 T10921146  RH  065%=      5-min Rain = 0
KPD2 131306Z 31001KT M09/M15 A3053 RMK A01 T10911145  RH  065%=      5-min Rain = 0
KPD2 131307Z 33001KT M09/M15 A3053 RMK A01 T10901145  RH  064%=      5-min Rain = 0
KPD2 131308Z 33001KT M09/M15 A3053 RMK A01 T10901146  RH  064%=      5-min Rain = 0
KPD2 131309Z 32001KT M09/M15 A3053 RMK A01 T10911146  RH  064%=      5-min Rain = 0
KPD2 131310Z 30001KT M09/M15 A3053 RMK A01 T10911147  RH  064%=      5-min Rain = 0
KPD2 131311Z 30001KT M09/M15 A3053 RMK A01 T10911147  RH  064%=      5-min Rain = 0
KPD2 131312Z 29002KT M09/M15 A3053 RMK A01 T10911146  RH  064%=      5-min Rain = 0
KPD2 131313Z 29002KT M09/M15 A3053 RMK A01 T10901146  RH  064%=      5-min Rain = 0
KPD2 131314Z 29002KT M09/M15 A3053 RMK A01 T10911146  RH  064%=      5-min Rain = 0
KPD2 131315Z 29002KT M09/M15 A3053 RMK A01 T10901146  RH  064%=      5-min Rain = 0
KPD2 131316Z 28002KT M09/M15 A3053 RMK A01 T10901146  RH  064%=      5-min Rain = 0
KPD2 131317Z 28002KT M09/M15 A3054 RMK A01 T10901147  RH  064%=      5-min Rain = 0
KPD2 131318Z 28002KT M09/M15 A3054 RMK A01 T10901147  RH  064%=      5-min Rain = 0
KPD2 131319Z 29003KT M09/M15 A3054 RMK A01 T10911147  RH  064%=      5-min Rain = 0
KPD2 131320Z 29003KT M09/M15 A3054 RMK A01 T10911146  RH  064%=      5-min Rain = 0
KPD2 131321Z 28002KT M09/M15 A3054 RMK A01 T10901146  RH  064%=      5-min Rain = 0
KPD2 131322Z 28002KT M09/M15 A3054 RMK A01 T10901146  RH  064%=      5-min Rain = 0
KPD2 131323Z 28001KT M09/M15 A3054 RMK A01 T10901147  RH  064%=      5-min Rain = 0
KPD2 131324Z 27002KT M09/M15 A3054 RMK A01 T10911148  RH  063%=      5-min Rain = 0
KPD2 131325Z 27001KT M09/M15 A3054 RMK A01 T10921148  RH  064%=      5-min Rain = 0
KPD2 131326Z 28000KT M09/M15 A3053 RMK A01 T10921148  RH  064%=      5-min Rain = 0
KPD2 131327Z 28001KT M09/M15 A3053 RMK A01 T10921147  RH  064%=      5-min Rain = 0
KPD2 131328Z 28001KT M09/M15 A3053 RMK A01 T10911147  RH  064%=      5-min Rain = 0
KPD2 131329Z 28000KT M09/M15 A3053 RMK A01 T10921147  RH  064%=      5-min Rain = 0
KPD2 131330Z 00000KT M09/M15 A3053 RMK A01 T10921147  RH  064%=      5-min Rain = 0
KPD2 131331Z 00000KT M09/M15 A3053 RMK A01 T10921147  RH  064%=      5-min Rain = 0
KPD2 131332Z 27000KT M09/M15 A3053 RMK A01 T10921148  RH  064%=      5-min Rain = 0
KPD2 131333Z 27000KT M09/M15 A3053 RMK A01 T10921148  RH  064%=      5-min Rain = 0
KPD2 131334Z 00000KT M09/M15 A3053 RMK A01 T10921147  RH  064%=      5-min Rain = 0
KPD2 131335Z 00000KT M09/M15 A3053 RMK A01 T10911146  RH  064%=      5-min Rain = 0
KPD2 131336Z 00000KT M09/M15 A3053 RMK A01 T10911147  RH  064%=      5-min Rain = 0
KPD2 131337Z 00000KT M09/M15 A3054 RMK A01 T10911147  RH  064%=      5-min Rain = 0
KPD2 131338Z 00000KT M09/M15 A3054 RMK A01 T10901147  RH  064%=      5-min Rain = 0
KPD2 131339Z 00000KT M09/M15 A3054 RMK A01 T10901147  RH  063%=      5-min Rain = 0
KPD2 131340Z 00000KT M09/M15 A3054 RMK A01 T10901148  RH  063%=      5-min Rain = 0
KPD2 131341Z 00000KT M09/M15 A3054 RMK A01 T10901147  RH  063%=      5-min Rain = 0
KPD2 131342Z 24001KT M09/M15 A3054 RMK A01 T10901147  RH  063%=      5-min Rain = 0
KPD2 131343Z 24001KT M09/M15 A3054 RMK A01 T10901148  RH  063%=      5-min Rain = 0
KPD2 131344Z 24001KT M09/M15 A3054 RMK A01 T10901148  RH  063%=      5-min Rain = 0
KPD2 131345Z 24001KT M09/M15 A3054 RMK A01 T10901148  RH  063%=      5-min Rain = 0
KPD2 131346Z 24001KT M09/M15 A3054 RMK A01 T10901148  RH  063%=      5-min Rain = 0
KPD2 131347Z 24001KT M09/M15 A3054 RMK A01 T10911149  RH  063%=      5-min Rain = 0
KPD2 131348Z 24000KT M09/M15 A3054 RMK A01 T10911149  RH  063%=      5-min Rain = 0
KPD2 131349Z 00000KT M09/M15 A3054 RMK A01 T10921149  RH  063%=      5-min Rain = 0
KPD2 131350Z 00000KT M09/M15 A3054 RMK A01 T10921150  RH  063%=      5-min Rain = 0
KPD2 131351Z 00000KT M09/M15 A3054 RMK A01 T10931150  RH  063%=      5-min Rain = 0
KPD2 131352Z 00000KT M09/M15 A3054 RMK A01 T10931150  RH  063%=      5-min Rain = 0
KPD2 131353Z 00000KT M09/M15 A3054 RMK A01 T10931150  RH  063%=      5-min Rain = 0
KPD2 131354Z 00000KT M09/M15 A3054 RMK A01 T10941150  RH  063%=      5-min Rain = 0
KPD2 131355Z 00000KT M09/M15 A3055 RMK A01 T10941151  RH  063%=      5-min Rain = 0
KPD2 131356Z 00000KT M10/M15 A3055 RMK A01 T10951151  RH  063%=      5-min Rain = 0
KPD2 131357Z 00000KT M10/M15 A3055 RMK A01 T10951151  RH  064%=      5-min Rain = 0
KPD2 131358Z 00000KT M10/M15 A3055 RMK A01 T10951151  RH  064%=      5-min Rain = 0
KPD2 131359Z 00000KT M10/M15 A3055 RMK A01 T10951150  RH  064%=      5-min Rain = 0
KPD2 131400Z 00000KT M10/M15 A3055 RMK A01 T10951151  RH  064%=      5-min Rain = 0
KPD2 131401Z 00000KT M10/M15 A3055 RMK A01 T10951151  RH  064%=      5-min Rain = 0
KPD2 131402Z 00000KT M10/M15 A3055 RMK A01 T10951152  RH  064%=      5-min Rain = 0
KPD2 131403Z 00000KT M10/M15 A3055 RMK A01 T10951152  RH  063%=      5-min Rain = 0
KPD2 131404Z 00000KT M10/M15 A3055 RMK A01 T10961152  RH  064%=      5-min Rain = 0
KPD2 131405Z 00000KT M10/M15 A3055 RMK A01 T10961151  RH  064%=      5-min Rain = 0
KPD2 131406Z 00000KT M10/M15 A3055 RMK A01 T10961151  RH  064%=      5-min Rain = 0
KPD2 131407Z 00000KT M10/M15 A3055 RMK A01 T10961151  RH  064%=      5-min Rain = 0
KPD2 131408Z 00000KT M10/M15 A3055 RMK A01 T10961151  RH  064%=      5-min Rain = 0
KPD2 131409Z 00000KT M10/M15 A3055 RMK A01 T10961151  RH  065%=      5-min Rain = 0
KPD2 131410Z 24000KT M10/M15 A3055 RMK A01 T10971151  RH  065%=      5-min Rain = 0
KPD2 131411Z 24001KT M10/M15 A3055 RMK A01 T10971151  RH  065%=      5-min Rain = 0
KPD2 131412Z 25001KT M10/M15 A3055 RMK A01 T10971151  RH  065%=      5-min Rain = 0
KPD2 131413Z 28002KT M10/M15 A3055 RMK A01 T10981152  RH  065%=      5-min Rain = 0
KPD2 131414Z 27002KT M10/M15 A3055 RMK A01 T10981152  RH  065%=      5-min Rain = 0
KPD2 131415Z 28001KT M10/M15 A3055 RMK A01 T10971152  RH  065%=      5-min Rain = 0
KPD2 131416Z 00000KT M10/M15 A3055 RMK A01 T10971152  RH  064%=      5-min Rain = 0
KPD2 131417Z 30001KT M10/M15 A3055 RMK A01 T10961151  RH  064%=      5-min Rain = 0
KPD2 131418Z 30000KT M10/M15 A3055 RMK A01 T10961152  RH  064%=      5-min Rain = 0
KPD2 131419Z 30001KT M10/M15 A3055 RMK A01 T10951152  RH  064%=      5-min Rain = 0
KPD2 131420Z 30001KT M10/M15 A3055 RMK A01 T10951151  RH  063%=      5-min Rain = 0
KPD2 131421Z 29002KT M09/M15 A3055 RMK A01 T10941151  RH  063%=      5-min Rain = 0
KPD2 131422Z 29002KT M09/M15 A3055 RMK A01 T10941151  RH  063%=      5-min Rain = 0
KPD2 131423Z 29002KT M09/M15 A3056 RMK A01 T10931151  RH  063%=      5-min Rain = 0
KPD2 131424Z 30002KT M09/M15 A3056 RMK A01 T10931151  RH  063%=      5-min Rain = 0
KPD2 131425Z 32002KT M09/M15 A3056 RMK A01 T10931151  RH  062%=      5-min Rain = 0
KPD2 131426Z 34001KT M09/M15 A3056 RMK A01 T10931151  RH  062%=      5-min Rain = 0
KPD2 131427Z 34002KT M09/M15 A3056 RMK A01 T10931152  RH  062%=      5-min Rain = 0
KPD2 131428Z 33001KT M09/M15 A3056 RMK A01 T10931152  RH  062%=      5-min Rain = 0
KPD2 131429Z 33001KT M09/M15 A3056 RMK A01 T10931152  RH  062%=      5-min Rain = 0
KPD2 131430Z 32001KT M09/M15 A3056 RMK A01 T10921151  RH  062%=      5-min Rain = 0
KPD2 131431Z 32001KT M09/M15 A3056 RMK A01 T10911151  RH  061%=      5-min Rain = 0
KPD2 131432Z 32000KT M09/M15 A3056 RMK A01 T10901151  RH  061%=      5-min Rain = 0
KPD2 131433Z 00000KT M09/M15 A3056 RMK A01 T10891151  RH  061%=      5-min Rain = 0
KPD2 131434Z 32000KT M09/M15 A3056 RMK A01 T10871150  RH  060%=      5-min Rain = 0
KPD2 131435Z 31001KT M09/M15 A3056 RMK A01 T10861151  RH  060%=      5-min Rain = 0
KPD2 131436Z 31000KT M09/M15 A3056 RMK A01 T10861151  RH  059%=      5-min Rain = 0
KPD2 131437Z 26001KT M09/M15 A3056 RMK A01 T10861151  RH  059%=      5-min Rain = 0
KPD2 131438Z 27001KT M09/M15 A3056 RMK A01 T10851151  RH  059%=      5-min Rain = 0
KPD2 131439Z 27002KT M08/M15 A3056 RMK A01 T10841150  RH  059%=      5-min Rain = 0
KPD2 131440Z 27002KT M08/M15 A3057 RMK A01 T10831149  RH  059%=      5-min Rain = 0
KPD2 131446Z 30003KT M08/M15 A3057 RMK A01 T10811149  RH  058%=      5-min Rain = 0
KPD2 131447Z 31003KT M08/M15 A3057 RMK A01 T10801148  RH  058%=      5-min Rain = 0
KPD2 131448Z 31002KT M08/M15 A3057 RMK A01 T10801148  RH  058%=      5-min Rain = 0
KPD2 131449Z 30002KT M08/M15 A3057 RMK A01 T10791148  RH  058%=      5-min Rain = 0
KPD2 131450Z 30003KT M08/M15 A3057 RMK A01 T10791147  RH  058%=      5-min Rain = 0
KPD2 131451Z 30003KT M08/M15 A3057 RMK A01 T10781147  RH  057%=      5-min Rain = 0
KPD2 131452Z 30003KT M08/M15 A3057 RMK A01 T10771147  RH  057%=      5-min Rain = 0
KPD2 131453Z 30003KT M08/M15 A3057 RMK A01 T10761147  RH  057%=      5-min Rain = 0
KPD2 131454Z 30003KT M08/M15 A3057 RMK A01 T10751147  RH  056%=      5-min Rain = 0
KPD2 131455Z 31002KT M07/M15 A3057 RMK A01 T10741147  RH  056%=      5-min Rain = 0
KPD2 131456Z 30004KT M07/M15 A3057 RMK A01 T10731147  RH  056%=      5-min Rain = 0
KPD2 131457Z 31004KT M07/M15 A3057 RMK A01 T10721147  RH  055%=      5-min Rain = 0
KPD2 131458Z 31004KT M07/M15 A3057 RMK A01 T10721148  RH  055%=      5-min Rain = 0
KPD2 131459Z 31002KT M07/M15 A3057 RMK A01 T10711148  RH  054%=      5-min Rain = 0
KPD2 131500Z 31002KT M07/M15 A3057 RMK A01 T10711146  RH  055%=      5-min Rain = 0
KPD2 131501Z 30003KT M07/M15 A3057 RMK A01 T10701146  RH  055%=      5-min Rain = 0
KPD2 131502Z 30003KT M07/M15 A3057 RMK A01 T10691146  RH  054%=      5-min Rain = 0
KPD2 131503Z 29003KT M07/M15 A3057 RMK A01 T10691146  RH  054%=      5-min Rain = 0
KPD2 131504Z 28002KT M07/M15 A3058 RMK A01 T10681147  RH  054%=      5-min Rain = 0
KPD2 131505Z 31002KT M07/M15 A3057 RMK A01 T10671147  RH  053%=      5-min Rain = 0
KPD2 131506Z 33003KT M07/M15 A3057 RMK A01 T10671146  RH  053%=      5-min Rain = 0
KPD2 131507Z 31003KT M07/M15 A3057 RMK A01 T10671146  RH  053%=      5-min Rain = 0
KPD2 131508Z 33003KT M07/M15 A3057 RMK A01 T10661147  RH  053%=      5-min Rain = 0
KPD2 131509Z 33003KT M07/M15 A3057 RMK A01 T10661146  RH  053%=      5-min Rain = 0
KPD2 131510Z 33003KT M07/M15 A3057 RMK A01 T10651146  RH  053%=      5-min Rain = 0
KPD2 131511Z 31004KT M07/M15 A3057 RMK A01 T10651147  RH  052%=      5-min Rain = 0
KPD2 131512Z 32003KT M07/M15 A3057 RMK A01 T10651147  RH  052%=      5-min Rain = 0
KPD2 131513Z 31003KT M06/M15 A3057 RMK A01 T10641147  RH  052%=      5-min Rain = 0
KPD2 131514Z 31003KT M06/M15 A3057 RMK A01 T10631146  RH  052%=      5-min Rain = 0
KPD2 131515Z 33003KT M06/M15 A3057 RMK A01 T10621145  RH  052%=      5-min Rain = 0
KPD2 131516Z 34004KT M06/M15 A3057 RMK A01 T10621146  RH  051%=      5-min Rain = 0
KPD2 131517Z 33003KT M06/M15 A3057 RMK A01 T10621147  RH  051%=      5-min Rain = 0
KPD2 131518Z 35003KT M06/M15 A3057 RMK A01 T10621147  RH  051%=      5-min Rain = 0
KPD2 131519Z 36002KT M06/M15 A3057 RMK A01 T10611147  RH  051%=      5-min Rain = 0
KPD2 131520Z 36002KT M06/M15 A3057 RMK A01 T10601146  RH  051%=      5-min Rain = 0
KPD2 131521Z 01003KT M06/M15 A3057 RMK A01 T10601146  RH  051%=      5-min Rain = 0
KPD2 131522Z 02003KT M06/M15 A3057 RMK A01 T10591146  RH  050%=      5-min Rain = 0
KPD2 131523Z 02002KT M06/M15 A3057 RMK A01 T10591147  RH  050%=      5-min Rain = 0
KPD2 131524Z 02002KT M06/M15 A3057 RMK A01 T10591148  RH  049%=      5-min Rain = 0
KPD2 131525Z 03002KT M06/M15 A3057 RMK A01 T10591148  RH  049%=      5-min Rain = 0
KPD2 131526Z 03001KT M06/M15 A3057 RMK A01 T10591149  RH  049%=      5-min Rain = 0
KPD2 131527Z 03001KT M06/M15 A3056 RMK A01 T10591149  RH  049%=      5-min Rain = 0
KPD2 131528Z 04001KT M06/M15 A3056 RMK A01 T10591148  RH  049%=      5-min Rain = 0
KPD2 131529Z 02001KT M06/M15 A3056 RMK A01 T10581148  RH  049%=      5-min Rain = 0
KPD2 131530Z 01001KT M06/M15 A3056 RMK A01 T10581148  RH  049%=      5-min Rain = 0
KPD2 131531Z 31000KT M06/M15 A3056 RMK A01 T10581148  RH  049%=      5-min Rain = 0
KPD2 131532Z 28001KT M06/M15 A3056 RMK A01 T10581149  RH  049%=      5-min Rain = 0
KPD2 131533Z 26001KT M06/M15 A3056 RMK A01 T10571148  RH  049%=      5-min Rain = 0
KPD2 131534Z 25001KT M06/M15 A3056 RMK A01 T10561147  RH  049%=      5-min Rain = 0
KPD2 131535Z 24001KT M06/M15 A3056 RMK A01 T10551145  RH  049%=      5-min Rain = 0
KPD2 131536Z 23000KT M05/M15 A3056 RMK A01 T10531145  RH  048%=      5-min Rain = 0
KPD2 131537Z 19000KT M05/M15 A3056 RMK A01 T10521146  RH  048%=      5-min Rain = 0
KPD2 131538Z 16001KT M05/M15 A3056 RMK A01 T10501145  RH  047%=      5-min Rain = 0
KPD2 131539Z 13001KT M05/M15 A3057 RMK A01 T10481145  RH  047%=      5-min Rain = 0
KPD2 131540Z 14001KT M05/M15 A3057 RMK A01 T10471145  RH  046%=      5-min Rain = 0
KPD2 131541Z 12000KT M05/M15 A3057 RMK A01 T10461146  RH  046%=      5-min Rain = 0
KPD2 131542Z 18001KT M05/M15 A3057 RMK A01 T10451145  RH  046%=      5-min Rain = 0
KPD2 131543Z 16000KT M04/M15 A3057 RMK A01 T10441145  RH  045%=      5-min Rain = 0
KPD2 131544Z 00000KT M04/M15 A3057 RMK A01 T10441145  RH  045%=      5-min Rain = 0
KPD2 131545Z 07000KT M04/M14 A3057 RMK A01 T10421144  RH  045%=      5-min Rain = 0
KPD2 131546Z 30001KT M04/M15 A3057 RMK A01 T10421145  RH  045%=      5-min Rain = 0
KPD2 131547Z 20000KT M04/M15 A3057 RMK A01 T10431146  RH  045%=      5-min Rain = 0
KPD2 131548Z 15002KT M04/M15 A3058 RMK A01 T10431145  RH  045%=      5-min Rain = 0
KPD2 131549Z 14001KT M04/M14 A3058 RMK A01 T10421144  RH  045%=      5-min Rain = 0
KPD2 131550Z 14001KT M04/M14 A3058 RMK A01 T10401144  RH  044%=      5-min Rain = 0
KPD2 131551Z 15002KT M04/M14 A3057 RMK A01 T10391143  RH  044%=      5-min Rain = 0
KPD2 131552Z 16003KT M04/M14 A3057 RMK A01 T10381143  RH  044%=      5-min Rain = 0
KPD2 131553Z 14001KT M04/M14 A3057 RMK A01 T10371143  RH  044%=      5-min Rain = 0
KPD2 131554Z 15002KT M04/M14 A3057 RMK A01 T10381144  RH  044%=      5-min Rain = 0
KPD2 131555Z 14002KT M04/M14 A3057 RMK A01 T10381144  RH  044%=      5-min Rain = 0
KPD2 131556Z 12001KT M04/M14 A3057 RMK A01 T10371143  RH  044%=      5-min Rain = 0
KPD2 131557Z 10001KT M04/M14 A3057 RMK A01 T10351141  RH  044%=      5-min Rain = 0
KPD2 131558Z 08000KT M04/M14 A3057 RMK A01 T10351142  RH  043%=      5-min Rain = 0
KPD2 131559Z 15001KT M04/M14 A3057 RMK A01 T10371143  RH  043%=      5-min Rain = 0
KPD2 131600Z 16003KT M04/M14 A3057 RMK A01 T10361143  RH  043%=      5-min Rain = 0
KPD2 131601Z 15002KT M04/M14 A3057 RMK A01 T10351142  RH  043%=      5-min Rain = 0
KPD2 131602Z 15002KT M04/M14 A3057 RMK A01 T10351141  RH  043%=      5-min Rain = 0
KPD2 131603Z 18002KT M03/M14 A3057 RMK A01 T10341141  RH  043%=      5-min Rain = 0
KPD2 131604Z 15002KT M03/M14 A3057 RMK A01 T10341141  RH  043%=      5-min Rain = 0
KPD2 131605Z 13002KT M04/M14 A3057 RMK A01 T10351142  RH  043%=      5-min Rain = 0
KPD2 131606Z 12004KT M03/M14 A3057 RMK A01 T10331139  RH  043%=      5-min Rain = 0
KPD2 131607Z 10004KT M03/M14 A3057 RMK A01 T10301139  RH  043%=      5-min Rain = 0
KPD2 131608Z 11004KT M03/M14 A3057 RMK A01 T10291140  RH  042%=      5-min Rain = 0
KPD2 131609Z 12003KT M03/M14 A3057 RMK A01 T10291141  RH  042%=      5-min Rain = 0
KPD2 131610Z 10002KT M03/M14 A3057 RMK A01 T10291141  RH  042%=      5-min Rain = 0
KPD2 131611Z 11003KT M03/M14 A3057 RMK A01 T10301142  RH  042%=      5-min Rain = 0
KPD2 131612Z 12004KT M03/M14 A3057 RMK A01 T10301142  RH  042%=      5-min Rain = 0
KPD2 131613Z 12003KT M03/M14 A3057 RMK A01 T10291142  RH  041%=      5-min Rain = 0
KPD2 131614Z 12002KT M03/M14 A3057 RMK A01 T10281143  RH  041%=      5-min Rain = 0
KPD2 131615Z 11003KT M03/M14 A3057 RMK A01 T10281143  RH  041%=      5-min Rain = 0
KPD2 131616Z 09004KT M03/M14 A3057 RMK A01 T10271141  RH  041%=      5-min Rain = 0
KPD2 131617Z 11004KT M03/M14 A3057 RMK A01 T10261142  RH  041%=      5-min Rain = 0
KPD2 131618Z 10004KT M03/M14 A3057 RMK A01 T10261142  RH  040%=      5-min Rain = 0
KPD2 131619Z 12004KT M03/M14 A3057 RMK A01 T10261143  RH  040%=      5-min Rain = 0
KPD2 131620Z 10004KT M03/M14 A3057 RMK A01 T10261143  RH  040%=      5-min Rain = 0
KPD2 131621Z 11004KT M03/M14 A3057 RMK A01 T10261143  RH  040%=      5-min Rain = 0
KPD2 131622Z 13004KT M03/M14 A3057 RMK A01 T10251142  RH  040%=      5-min Rain = 0
KPD2 131623Z 13002KT M02/M14 A3057 RMK A01 T10241142  RH  040%=      5-min Rain = 0
KPD2 131624Z 11005KT M02/M14 A3057 RMK A01 T10241143  RH  040%=      5-min Rain = 0
KPD2 131625Z 09004KT M02/M14 A3057 RMK A01 T10231141  RH  040%=      5-min Rain = 0
KPD2 131626Z 10003KT M02/M14 A3057 RMK A01 T10201141  RH  039%=      5-min Rain = 0
KPD2 131627Z 09003KT M02/M14 A3057 RMK A01 T10181141  RH  039%=      5-min Rain = 0
KPD2 131628Z 10005KT M02/M14 A3057 RMK A01 T10161140  RH  038%=      5-min Rain = 0
KPD2 131629Z 09004KT M02/M14 A3057 RMK A01 T10151141  RH  038%=      5-min Rain = 0
KPD2 131630Z 13004KT M02/M14 A3057 RMK A01 T10151142  RH  038%=      5-min Rain = 0
KPD2 131631Z 13004KT M01/M14 A3057 RMK A01 T10141142  RH  037%=      5-min Rain = 0
KPD2 131632Z 12005KT M01/M14 A3057 RMK A01 T10141143  RH  037%=      5-min Rain = 0
KPD2 131633Z 11004KT M02/M14 A3057 RMK A01 T10151144  RH  037%=      5-min Rain = 0
KPD2 131634Z 10006KT M01/M14 A3057 RMK A01 T10141142  RH  037%=      5-min Rain = 0
KPD2 131635Z 10005KT M01/M14 A3057 RMK A01 T10141143  RH  037%=      5-min Rain = 0
KPD2 131636Z 12003KT M01/M14 A3057 RMK A01 T10131142  RH  037%=      5-min Rain = 0
KPD2 131637Z 12003KT M01/M14 A3057 RMK A01 T10121142  RH  037%=      5-min Rain = 0
KPD2 131638Z 12004KT M01/M14 A3057 RMK A01 T10111141  RH  036%=      5-min Rain = 0
KPD2 131639Z 11004KT M01/M14 A3057 RMK A01 T10091141  RH  036%=      5-min Rain = 0
KPD2 131640Z 12003KT M01/M14 A3057 RMK A01 T10071141  RH  036%=      5-min Rain = 0
KPD2 131641Z 08003KT M01/M14 A3057 RMK A01 T10061141  RH  035%=      5-min Rain = 0
KPD2 131642Z 08005KT M01/M14 A3057 RMK A01 T10051141  RH  035%=      5-min Rain = 0
KPD2 131643Z 10006KT M01/M14 A3057 RMK A01 T10071143  RH  035%=      5-min Rain = 0
KPD2 131644Z 09004KT M01/M14 A3057 RMK A01 T10091144  RH  035%=      5-min Rain = 0
KPD2 131645Z 09002KT M01/M14 A3057 RMK A01 T10101143  RH  035%=      5-min Rain = 0
KPD2 131646Z 10003KT M01/M14 A3057 RMK A01 T10081141  RH  036%=      5-min Rain = 0
KPD2 131647Z 11006KT M01/M14 A3057 RMK A01 T10051140  RH  035%=      5-min Rain = 0
KPD2 131648Z 12003KT M00/M14 A3057 RMK A01 T10021140  RH  035%=      5-min Rain = 0
KPD2 131649Z 10003KT M00/M14 A3057 RMK A01 T10021142  RH  034%=      5-min Rain = 0
KPD2 131650Z 12006KT M00/M14 A3057 RMK A01 T10011142  RH  034%=      5-min Rain = 0
KPD2 131651Z 12004KT M00/M14 A3057 RMK A01 T10011143  RH  034%=      5-min Rain = 0
KPD2 131652Z 08004KT M00/M14 A3057 RMK A01 T10011142  RH  034%=      5-min Rain = 0
KPD2 131653Z 09005KT M00/M14 A3057 RMK A01 T10021143  RH  034%=      5-min Rain = 0
KPD2 131654Z 11003KT M00/M14 A3057 RMK A01 T10011142  RH  034%=      5-min Rain = 0
KPD2 131655Z 11005KT 00/14 A3057 RMK A01 T00000-141  RH  034%=      5-min Rain = 0
KPD2 131656Z 13005KT 00/M14 A3057 RMK A01 T00011142  RH  033%=      5-min Rain = 0
KPD2 131657Z 12004KT 00/14 A3057 RMK A01 T00000-143  RH  033%=      5-min Rain = 0
KPD2 131658Z 10004KT M00/M14 A3057 RMK A01 T10011144  RH  033%=      5-min Rain = 0
KPD2 131659Z 11004KT M00/M14 A3057 RMK A01 T10021144  RH  034%=      5-min Rain = 0
KPD2 131700Z 12003KT M00/M14 A3057 RMK A01 T10011141  RH  034%=      5-min Rain = 0
KPD2 131701Z 13004KT 00/M14 A3057 RMK A01 T00021139  RH  034%=      5-min Rain = 0
KPD2 131702Z 12003KT 00/M14 A3057 RMK A01 T00021142  RH  033%=      5-min Rain = 0
KPD2 131703Z 10003KT 00/M14 A3057 RMK A01 T00011142  RH  033%=      5-min Rain = 0
KPD2 131704Z 12003KT 00/M14 A3057 RMK A01 T00021139  RH  034%=      5-min Rain = 0
KPD2 131705Z 14005KT 00/M14 A3057 RMK A01 T00041139  RH  033%=      5-min Rain = 0
KPD2 131706Z 12005KT 01/M14 A3056 RMK A01 T00051140  RH  033%=      5-min Rain = 0
KPD2 131707Z 13006KT 01/M14 A3056 RMK A01 T00061138  RH  033%=      5-min Rain = 0
KPD2 131708Z 12006KT 01/M14 A3056 RMK A01 T00081138  RH  033%=      5-min Rain = 0
KPD2 131709Z 12005KT 01/M14 A3056 RMK A01 T00091139  RH  032%=      5-min Rain = 0
KPD2 131710Z 13006KT 01/M14 A3056 RMK A01 T00091138  RH  032%=      5-min Rain = 0
KPD2 131711Z 11007KT 01/M14 A3056 RMK A01 T00101137  RH  032%=      5-min Rain = 0
KPD2 131712Z 12005KT 01/M14 A3056 RMK A01 T00111138  RH  032%=      5-min Rain = 0
KPD2 131713Z 15004KT 01/M14 A3056 RMK A01 T00081140  RH  032%=      5-min Rain = 0
KPD2 131714Z 15004KT 01/M14 A3056 RMK A01 T00081139  RH  032%=      5-min Rain = 0
KPD2 131715Z 16005KT 01/M14 A3056 RMK A01 T00091138  RH  032%=      5-min Rain = 0
KPD2 131716Z 16003KT 01/M14 A3056 RMK A01 T00091138  RH  032%=      5-min Rain = 0
KPD2 131717Z 15004KT 01/M14 A3056 RMK A01 T00091139  RH  032%=      5-min Rain = 0
KPD2 131718Z 16004KT 01/M14 A3056 RMK A01 T00111136  RH  032%=      5-min Rain = 0
KPD2 131719Z 15004KT 01/M14 A3056 RMK A01 T00131136  RH  032%=      5-min Rain = 0
KPD2 131720Z 12003KT 02/M14 A3056 RMK A01 T00151136  RH  032%=      5-min Rain = 0
KPD2 131721Z 11004KT 02/M14 A3056 RMK A01 T00171135  RH  031%=      5-min Rain = 0
KPD2 131722Z 10006KT 02/M14 A3056 RMK A01 T00191135  RH  031%=      5-min Rain = 0
KPD2 131723Z 12006KT 02/M14 A3056 RMK A01 T00191136  RH  031%=      5-min Rain = 0
KPD2 131724Z 14003KT 02/M14 A3055 RMK A01 T00181137  RH  031%=      5-min Rain = 0
KPD2 131725Z 11003KT 02/M14 A3055 RMK A01 T00191136  RH  031%=      5-min Rain = 0
KPD2 131726Z 12003KT 02/M14 A3055 RMK A01 T00191137  RH  030%=      5-min Rain = 0
KPD2 131727Z 13005KT 02/M14 A3055 RMK A01 T00201137  RH  030%=      5-min Rain = 0
KPD2 131728Z 15005KT 02/M14 A3055 RMK A01 T00191137  RH  030%=      5-min Rain = 0
KPD2 131729Z 12007KT 02/M14 A3055 RMK A01 T00201136  RH  031%=      5-min Rain = 0
KPD2 131730Z 11006KT 02/M14 A3054 RMK A01 T00221135  RH  030%=      5-min Rain = 0
KPD2 131731Z 09005KT 02/M13 A3054 RMK A01 T00231134  RH  030%=      5-min Rain = 0
KPD2 131732Z 11004KT 02/M14 A3054 RMK A01 T00221136  RH  030%=      5-min Rain = 0
KPD2 131733Z 10004KT 02/M14 A3054 RMK A01 T00211136  RH  030%=      5-min Rain = 0
KPD2 131734Z 10005KT 02/M13 A3055 RMK A01 T00221134  RH  030%=      5-min Rain = 0
KPD2 131735Z 10005KT 02/M13 A3055 RMK A01 T00241134  RH  030%=      5-min Rain = 0
KPD2 131736Z 13004KT 03/M13 A3054 RMK A01 T00251134  RH  030%=      5-min Rain = 0
KPD2 131737Z 11005KT 03/M13 A3054 RMK A01 T00271133  RH  030%=      5-min Rain = 0
KPD2 131738Z 09004KT 03/M13 A3054 RMK A01 T00291132  RH  029%=      5-min Rain = 0
KPD2 131739Z 13004KT 03/M13 A3054 RMK A01 T00291133  RH  029%=      5-min Rain = 0
KPD2 131740Z 12007KT 03/M13 A3054 RMK A01 T00301132  RH  029%=      5-min Rain = 0
KPD2 131741Z 13007KT 03/M13 A3054 RMK A01 T00311132  RH  029%=      5-min Rain = 0
KPD2 131742Z 14005KT 03/M13 A3054 RMK A01 T00311134  RH  029%=      5-min Rain = 0
KPD2 131743Z 11006KT 03/M14 A3054 RMK A01 T00301135  RH  029%=      5-min Rain = 0
KPD2 131744Z 10006KT 03/M13 A3054 RMK A01 T00301133  RH  029%=      5-min Rain = 0
KPD2 131745Z 11006KT 03/M13 A3054 RMK A01 T00321132  RH  029%=      5-min Rain = 0
KPD2 131746Z 14004KT 03/M13 A3054 RMK A01 T00331133  RH  029%=      5-min Rain = 0
KPD2 131747Z 13006KT 03/M13 A3054 RMK A01 T00321133  RH  029%=      5-min Rain = 0
KPD2 131748Z 11005KT 03/M13 A3054 RMK A01 T00331133  RH  029%=      5-min Rain = 0
KPD2 131749Z 11004KT 03/M13 A3053 RMK A01 T00331133  RH  029%=      5-min Rain = 0
KPD2 131750Z 12006KT 04/M13 A3053 RMK A01 T00351131  RH  029%=      5-min Rain = 0
KPD2 131751Z 12006KT 04/M13 A3053 RMK A01 T00361131  RH  028%=      5-min Rain = 0
KPD2 131752Z 11007KT 04/M13 A3053 RMK A01 T00381131  RH  028%=      5-min Rain = 0
KPD2 131753Z 09005KT 04/M13 A3053 RMK A01 T00381132  RH  028%=      5-min Rain = 0
KPD2 131754Z 10006KT 04/M13 A3053 RMK A01 T00371133  RH  028%=      5-min Rain = 0
KPD2 131755Z 11007KT 04/M13 A3053 RMK A01 T00361132  RH  028%=      5-min Rain = 0
KPD2 131756Z 10007KT 04/M13 A3053 RMK A01 T00361133  RH  028%=      5-min Rain = 0
KPD2 131757Z 12005KT 04/M13 A3053 RMK A01 T00351133  RH  028%=      5-min Rain = 0
KPD2 131758Z 12005KT 04/M13 A3053 RMK A01 T00361132  RH  028%=      5-min Rain = 0
KPD2 131759Z 10003KT 04/M13 A3053 RMK A01 T00351132  RH  028%=      5-min Rain = 0
KPD2 131800Z 09003KT 04/M13 A3053 RMK A01 T00371131  RH  028%=      5-min Rain = 0
KPD2 131801Z 10005KT 04/M13 A3053 RMK A01 T00381132  RH  028%=      5-min Rain = 0
KPD2 131802Z 10004KT 04/M13 A3052 RMK A01 T00381131  RH  028%=      5-min Rain = 0
KPD2 131803Z 12005KT 04/M13 A3052 RMK A01 T00411129  RH  028%=      5-min Rain = 0
KPD2 131804Z 11004KT 04/M13 A3052 RMK A01 T00441127  RH  028%=      5-min Rain = 0
KPD2 131805Z 11005KT 05/M13 A3052 RMK A01 T00481128  RH  027%=      5-min Rain = 0
KPD2 131806Z 10004KT 05/M13 A3052 RMK A01 T00481128  RH  026%=      5-min Rain = 0
KPD2 131807Z 10006KT 05/M13 A3052 RMK A01 T00501128  RH  026%=      5-min Rain = 0
KPD2 131808Z 09007KT 05/M13 A3052 RMK A01 T00501129  RH  026%=      5-min Rain = 0
KPD2 131809Z 11006KT 05/M13 A3052 RMK A01 T00481131  RH  026%=      5-min Rain = 0
KPD2 131810Z 13006KT 05/M13 A3052 RMK A01 T00471130  RH  026%=      5-min Rain = 0
KPD2 131811Z 12006KT 05/M13 A3051 RMK A01 T00471130  RH  026%=      5-min Rain = 0
KPD2 131812Z 11008KT 05/M13 A3051 RMK A01 T00491128  RH  027%=      5-min Rain = 0
KPD2 131813Z 11007KT 05/M13 A3051 RMK A01 T00491130  RH  026%=      5-min Rain = 0
KPD2 131814Z 12006KT 05/M13 A3051 RMK A01 T00491129  RH  026%=      5-min Rain = 0
KPD2 131815Z 11005KT 05/M13 A3051 RMK A01 T00501129  RH  026%=      5-min Rain = 0
KPD2 131816Z 13007KT 05/M13 A3051 RMK A01 T00521127  RH  026%=      5-min Rain = 0
KPD2 131817Z 14005KT 05/M13 A3051 RMK A01 T00521129  RH  026%=      5-min Rain = 0
KPD2 131818Z 09004KT 05/M13 A3051 RMK A01 T00511128  RH  026%=      5-min Rain = 0
KPD2 131819Z 09006KT 05/M13 A3051 RMK A01 T00531127  RH  026%=      5-min Rain = 0
KPD2 131820Z 12007KT 06/M13 A3051 RMK A01 T00561126  RH  026%=      5-min Rain = 0
KPD2 131821Z 11006KT 06/M13 A305 RMK A01 T00571125  RH  025%=      5-min Rain = 0
KPD2 131822Z 10005KT 06/M13 A305 RMK A01 T00581126  RH  025%=      5-min Rain = 0
KPD2 131823Z 10007KT 06/M13 A305 RMK A01 T00581127  RH  025%=      5-min Rain = 0
KPD2 131824Z 09006KT 06/M13 A305 RMK A01 T00571128  RH  025%=      5-min Rain = 0
KPD2 131825Z 10006KT 06/M13 A3049 RMK A01 T00561128  RH  025%=      5-min Rain = 0
KPD2 131826Z 09005KT 06/M13 A3049 RMK A01 T00561126  RH  026%=      5-min Rain = 0
KPD2 131827Z 13006KT 06/M13 A3049 RMK A01 T00571126  RH  025%=      5-min Rain = 0
KPD2 131828Z 11007KT 06/M13 A3049 RMK A01 T00581125  RH  025%=      5-min Rain = 0
KPD2 131829Z 11006KT 06/M13 A3049 RMK A01 T00581126  RH  025%=      5-min Rain = 0
KPD2 131830Z 11008KT 06/M13 A3049 RMK A01 T00581126  RH  025%=      5-min Rain = 0
KPD2 131831Z 12007KT 06/M13 A3049 RMK A01 T00581126  RH  025%=      5-min Rain = 0
KPD2 131832Z 11004KT 06/M13 A3049 RMK A01 T00591125  RH  025%=      5-min Rain = 0
KPD2 131833Z 11006KT 06/M12 A3048 RMK A01 T00611123  RH  025%=      5-min Rain = 0
KPD2 131834Z 10005KT 06/M12 A3048 RMK A01 T00631124  RH  025%=      5-min Rain = 0
KPD2 131835Z 10006KT 06/M13 A3048 RMK A01 T00621125  RH  025%=      5-min Rain = 0
KPD2 131836Z 09007KT 06/M12 A3048 RMK A01 T00621124  RH  025%=      5-min Rain = 0
KPD2 131837Z 09005KT 06/M13 A3048 RMK A01 T00611127  RH  025%=      5-min Rain = 0
KPD2 131838Z 12004KT 06/M12 A3048 RMK A01 T00601124  RH  025%=      5-min Rain = 0
KPD2 131839Z 11006KT 06/M12 A3048 RMK A01 T00641121  RH  025%=      5-min Rain = 0
KPD2 131840Z 11007KT 07/M12 A3048 RMK A01 T00681120  RH  025%=      5-min Rain = 0
KPD2 131841Z 11008KT 07/M12 A3047 RMK A01 T00701120  RH  024%=      5-min Rain = 0
KPD2 131842Z 11007KT 07/M12 A3047 RMK A01 T00701121  RH  024%=      5-min Rain = 0
KPD2 131843Z 10005KT 07/M12 A3047 RMK A01 T00701121  RH  024%=      5-min Rain = 0
KPD2 131844Z 10007KT 07/M12 A3047 RMK A01 T00701121  RH  024%=      5-min Rain = 0
KPD2 131845Z 11005KT 07/M12 A3046 RMK A01 T00701121  RH  024%=      5-min Rain = 0
KPD2 131846Z 11006KT 07/M12 A3046 RMK A01 T00721119  RH  024%=      5-min Rain = 0
KPD2 131847Z 11005KT 08/M12 A3046 RMK A01 T00751118  RH  024%=      5-min Rain = 0
KPD2 131848Z 13006KT 08/M12 A3046 RMK A01 T00751119  RH  024%=      5-min Rain = 0
KPD2 131849Z 10004KT 08/M12 A3046 RMK A01 T00751119  RH  024%=      5-min Rain = 0
KPD2 131850Z 10005KT 08/M12 A3046 RMK A01 T00751119  RH  024%=      5-min Rain = 0
KPD2 131851Z 11006KT 08/M12 A3046 RMK A01 T00771118  RH  024%=      5-min Rain = 0
KPD2 131852Z 12006KT 08/M12 A3045 RMK A01 T00811116  RH  023%=      5-min Rain = 0
KPD2 131853Z 12005KT 08/M12 A3045 RMK A01 T00791120  RH  023%=      5-min Rain = 0
KPD2 131854Z 15005KT 08/M12 A3045 RMK A01 T00771120  RH  023%=      5-min Rain = 0
KPD2 131855Z 15003KT 08/M12 A3045 RMK A01 T00761118  RH  024%=      5-min Rain = 0
KPD2 131856Z 13006KT 08/M12 A3045 RMK A01 T00771117  RH  024%=      5-min Rain = 0
KPD2 131857Z 12006KT 08/M12 A3045 RMK A01 T00791116  RH  024%=      5-min Rain = 0
KPD2 131858Z 11005KT 08/M12 A3044 RMK A01 T00821115  RH  023%=      5-min Rain = 0
KPD2 131859Z 13006KT 08/M11 A3044 RMK A01 T00841114  RH  023%=      5-min Rain = 0
KPD2 131900Z 12007KT 09/M11 A3044 RMK A01 T00861114  RH  023%=      5-min Rain = 0
KPD2 131901Z 12006KT 09/M12 A3044 RMK A01 T00861115  RH  023%=      5-min Rain = 0
KPD2 131902Z 13006KT 09/M11 A3044 RMK A01 T00861114  RH  023%=      5-min Rain = 0
KPD2 131903Z 12007KT 09/M12 A3044 RMK A01 T00851115  RH  023%=      5-min Rain = 0
KPD2 131904Z 12007KT 08/M11 A3044 RMK A01 T00841114  RH  023%=      5-min Rain = 0
KPD2 131905Z 14007KT 09/M11 A3044 RMK A01 T00851113  RH  023%=      5-min Rain = 0
KPD2 131906Z 15005KT 08/M12 A3044 RMK A01 T00841115  RH  023%=      5-min Rain = 0
KPD2 131907Z 13004KT 08/M12 A3044 RMK A01 T00821115  RH  023%=      5-min Rain = 0
KPD2 131908Z 15005KT 08/M11 A3044 RMK A01 T00831113  RH  024%=      5-min Rain = 0
KPD2 131909Z 16005KT 09/M11 A3043 RMK A01 T00851111  RH  024%=      5-min Rain = 0
KPD2 131910Z 17003KT 08/M11 A3043 RMK A01 T00841113  RH  024%=      5-min Rain = 0
KPD2 131911Z 14001KT 08/M11 A3043 RMK A01 T00821113  RH  024%=      5-min Rain = 0
KPD2 131912Z 13005KT 08/M11 A3043 RMK A01 T00821112  RH  024%=      5-min Rain = 0
KPD2 131913Z 15008KT 09/M11 A3043 RMK A01 T00861109  RH  024%=      5-min Rain = 0
KPD2 131914Z 14007KT 09/M11 A3043 RMK A01 T00881110  RH  024%=      5-min Rain = 0
KPD2 131915Z 16006KT 09/M11 A3043 RMK A01 T00881109  RH  024%=      5-min Rain = 0
KPD2 131916Z 15004KT 09/M11 A3043 RMK A01 T00871110  RH  023%=      5-min Rain = 0
KPD2 131917Z 14005G11KT 09/M11 A3043 RMK A01 T00871110  RH  024%=      5-min Rain = 0
KPD2 131918Z 14009G14KT 09/M11 A3043 RMK A01 T00881110  RH  023%=      5-min Rain = 0
KPD2 131919Z 16009KT 09/M11 A3043 RMK A01 T00851111  RH  024%=      5-min Rain = 0
KPD2 131920Z 14006KT 08/M11 A3043 RMK A01 T00841110  RH  024%=      5-min Rain = 0
KPD2 131921Z 13005KT 09/M11 A3043 RMK A01 T00851110  RH  024%=      5-min Rain = 0
KPD2 131922Z 12004KT 09/M11 A3042 RMK A01 T00871108  RH  024%=      5-min Rain = 0
KPD2 131923Z 16006KT 09/M11 A3042 RMK A01 T00921105  RH  024%=      5-min Rain = 0
KPD2 131924Z 14006KT 09/M11 A3042 RMK A01 T00931107  RH  023%=      5-min Rain = 0
KPD2 131925Z 14006KT 09/M11 A3042 RMK A01 T00931108  RH  023%=      5-min Rain = 0
KPD2 131926Z 14008KT 09/M11 A3042 RMK A01 T00921109  RH  023%=      5-min Rain = 0
KPD2 131927Z 15006KT 09/M11 A3042 RMK A01 T00931109  RH  023%=      5-min Rain = 0
KPD2 131928Z 16006KT 09/M11 A3042 RMK A01 T00921109  RH  023%=      5-min Rain = 0
KPD2 131929Z 17004KT 09/M11 A3042 RMK A01 T00911109  RH  023%=      5-min Rain = 0
KPD2 131930Z 17005KT 09/M11 A3042 RMK A01 T00921108  RH  023%=      5-min Rain = 0
KPD2 131931Z 16006KT 09/M11 A3042 RMK A01 T00931107  RH  023%=      5-min Rain = 0
KPD2 131932Z 17005KT 09/M11 A3042 RMK A01 T00941107  RH  023%=      5-min Rain = 0
KPD2 131933Z 15009KT 10/M11 A3042 RMK A01 T00951107  RH  023%=      5-min Rain = 0
KPD2 131934Z 16009KT 10/M11 A3042 RMK A01 T00961106  RH  023%=      5-min Rain = 0
KPD2 131935Z 17007KT 10/M11 A3042 RMK A01 T00951107  RH  023%=      5-min Rain = 0
KPD2 131936Z 19007KT 09/M11 A3042 RMK A01 T00911109  RH  023%=      5-min Rain = 0
KPD2 131937Z 15006KT 09/M11 A3041 RMK A01 T00901108  RH  024%=      5-min Rain = 0
KPD2 131938Z 17005KT 09/M11 A3041 RMK A01 T00911106  RH  024%=      5-min Rain = 0
KPD2 131939Z 16007KT 09/M11 A3041 RMK A01 T00931106  RH  023%=      5-min Rain = 0
KPD2 131940Z 16009KT 09/M11 A3041 RMK A01 T00941105  RH  023%=      5-min Rain = 0
KPD2 131941Z 17006KT 10/M11 A3041 RMK A01 T00961105  RH  023%=      5-min Rain = 0
KPD2 131942Z 17006KT 10/M11 A3041 RMK A01 T00951107  RH  023%=      5-min Rain = 0
KPD2 131943Z 17004KT 09/M11 A3041 RMK A01 T00941106  RH  023%=      5-min Rain = 0
KPD2 131944Z 15006KT 09/M11 A3041 RMK A01 T00931107  RH  023%=      5-min Rain = 0
KPD2 131945Z 17006KT 09/M11 A3041 RMK A01 T00941106  RH  023%=      5-min Rain = 0
KPD2 131946Z 18004KT 09/M11 A3041 RMK A01 T00941107  RH  023%=      5-min Rain = 0
KPD2 131947Z 15004KT 09/M11 A3041 RMK A01 T00941106  RH  023%=      5-min Rain = 0
KPD2 131948Z 15008KT 10/M11 A3041 RMK A01 T00971106  RH  023%=      5-min Rain = 0
KPD2 131949Z 14010KT 10/M11 A304 RMK A01 T00991105  RH  023%=      5-min Rain = 0
KPD2 131950Z 14011KT 10/M10 A304 RMK A01 T01011102  RH  023%=      5-min Rain = 0
KPD2 131951Z 14009KT 10/M10 A304 RMK A01 T01021103  RH  023%=      5-min Rain = 0
KPD2 131952Z 18005KT 10/M10 A304 RMK A01 T01001103  RH  023%=      5-min Rain = 0
KPD2 131953Z 20005KT 10/M10 A304 RMK A01 T00981104  RH  023%=      5-min Rain = 0
KPD2 131954Z 18006KT 10/M10 A304 RMK A01 T01001101  RH  023%=      5-min Rain = 0
KPD2 131955Z 16008KT 10/M10 A304 RMK A01 T01021101  RH  023%=      5-min Rain = 0
KPD2 131956Z 17007KT 10/M10 A304 RMK A01 T01031101  RH  023%=      5-min Rain = 0
KPD2 131957Z 18005KT 11/M10 A304 RMK A01 T01051100  RH  023%=      5-min Rain = 0
KPD2 131958Z 20007KT 11/M10 A304 RMK A01 T01061100  RH  022%=      5-min Rain = 0
KPD2 131959Z 20004KT 11/M10 A304 RMK A01 T01071100  RH  022%=      5-min Rain = 0
KPD2 132000Z 15005KT 11/M10 A304 RMK A01 T01061101  RH  022%=      5-min Rain = 0
KPD2 132001Z 14003KT 10/M10 A304 RMK A01 T01041101  RH  022%=      5-min Rain = 0
KPD2 132002Z 14006KT 11/M10 A3039 RMK A01 T01061100  RH  023%=      5-min Rain = 0
KPD2 132003Z 15009KT 11/M10 A3039 RMK A01 T01081099  RH  022%=      5-min Rain = 0
KPD2 132004Z 15007KT 11/M10 A3039 RMK A01 T01091099  RH  022%=      5-min Rain = 0
KPD2 132005Z 15009KT 11/M10 A3039 RMK A01 T01071100  RH  022%=      5-min Rain = 0
KPD2 132006Z 16007KT 11/M10 A3039 RMK A01 T01051101  RH  023%=      5-min Rain = 0
KPD2 132007Z 15007KT 10/M10 A3039 RMK A01 T01031100  RH  023%=      5-min Rain = 0
KPD2 132008Z 17008KT 10/M10 A3038 RMK A01 T01031099  RH  023%=      5-min Rain = 0
KPD2 132009Z 16007KT 10/M10 A3038 RMK A01 T01021101  RH  023%=      5-min Rain = 0
KPD2 132010Z 15007KT 10/M10 A3038 RMK A01 T01011100  RH  023%=      5-min Rain = 0
KPD2 132011Z 15010KT 10/M10 A3038 RMK A01 T01021098  RH  023%=      5-min Rain = 0
KPD2 132012Z 14010KT 10/M10 A3038 RMK A01 T01031097  RH  023%=      5-min Rain = 0
KPD2 132013Z 14010KT 10/M10 A3038 RMK A01 T01031097  RH  023%=      5-min Rain = 0
KPD2 132014Z 17009KT 11/M10 A3038 RMK A01 T01051095  RH  023%=      5-min Rain = 0
KPD2 132015Z 18005KT 11/M10 A3038 RMK A01 T01061095  RH  023%=      5-min Rain = 0
KPD2 132016Z 20005KT 11/M09 A3037 RMK A01 T01071094  RH  023%=      5-min Rain = 0
KPD2 132017Z 19004KT 11/M09 A3037 RMK A01 T01091092  RH  023%=      5-min Rain = 0
KPD2 132018Z 16004KT 11/M09 A3037 RMK A01 T01121091  RH  023%=      5-min Rain = 0
KPD2 132019Z 17005KT 11/M09 A3037 RMK A01 T01141092  RH  023%=      5-min Rain = 0
KPD2 132020Z 18004KT 12/M09 A3037 RMK A01 T01151091  RH  023%=      5-min Rain = 0
KPD2 132021Z 19005KT 11/M09 A3037 RMK A01 T01141092  RH  023%=      5-min Rain = 0
KPD2 132022Z 19005KT 11/M09 A3037 RMK A01 T01141092  RH  023%=      5-min Rain = 0
KPD2 132023Z 21004KT 11/M09 A3037 RMK A01 T01121092  RH  023%=      5-min Rain = 0
KPD2 132024Z 14003KT 11/M09 A3037 RMK A01 T01111092  RH  023%=      5-min Rain = 0
KPD2 132025Z 14008G17KT 11/M09 A3036 RMK A01 T01121093  RH  023%=      5-min Rain = 0
KPD2 132026Z 16012KT 11/M09 A3037 RMK A01 T01131093  RH  023%=      5-min Rain = 0
KPD2 132027Z 19008KT 11/M09 A3037 RMK A01 T01111092  RH  023%=      5-min Rain = 0
KPD2 132028Z 16006KT 11/M09 A3037 RMK A01 T01101093  RH  023%=      5-min Rain = 0
KPD2 132029Z 16010KT 11/M10 A3036 RMK A01 T01111095  RH  023%=      5-min Rain = 0
KPD2 132030Z 14007G12KT 11/M09 A3036 RMK A01 T01101094  RH  023%=      5-min Rain = 0
KPD2 132031Z 13005KT 11/M09 A3036 RMK A01 T01091093  RH  023%=      5-min Rain = 0
KPD2 132032Z 15006KT 11/M09 A3036 RMK A01 T01081094  RH  023%=      5-min Rain = 0
KPD2 132033Z 16008KT 11/M09 A3036 RMK A01 T01081093  RH  023%=      5-min Rain = 0
KPD2 132034Z 14006KT 11/M09 A3036 RMK A01 T01081093  RH  023%=      5-min Rain = 0
KPD2 132035Z 16005KT 11/M09 A3036 RMK A01 T01091093  RH  023%=      5-min Rain = 0
KPD2 132036Z 17007KT 11/M09 A3036 RMK A01 T01111091  RH  023%=      5-min Rain = 0
KPD2 132037Z 20003KT 11/M09 A3036 RMK A01 T01131087  RH  024%=      5-min Rain = 0
KPD2 132038Z 20005KT 11/M09 A3036 RMK A01 T01131086  RH  024%=      5-min Rain = 0
KPD2 132039Z 19005KT 11/M09 A3036 RMK A01 T01121086  RH  024%=      5-min Rain = 0
KPD2 132040Z 16007KT 11/M09 A3036 RMK A01 T01131085  RH  024%=      5-min Rain = 0
KPD2 132041Z 22006G13KT 12/M08 A3036 RMK A01 T01151084  RH  024%=      5-min Rain = 0
KPD2 132042Z 21010KT 12/M08 A3036 RMK A01 T01151083  RH  024%=      5-min Rain = 0
KPD2 132043Z 18009G15KT 12/M08 A3036 RMK A01 T01161083  RH  024%=      5-min Rain = 0
KPD2 132044Z 18005G13KT 11/M08 A3036 RMK A01 T01121083  RH  024%=      5-min Rain = 0
KPD2 132045Z 19006KT 11/M08 A3036 RMK A01 T01101082  RH  025%=      5-min Rain = 0
KPD2 132046Z 17010KT 11/M08 A3036 RMK A01 T01121079  RH  025%=      5-min Rain = 0
KPD2 132047Z 16011KT 11/M08 A3036 RMK A01 T01131079  RH  025%=      5-min Rain = 0
KPD2 132048Z 18008KT 11/M08 A3036 RMK A01 T01111079  RH  026%=      5-min Rain = 0
KPD2 132049Z 17009KT 11/M08 A3036 RMK A01 T01111078  RH  026%=      5-min Rain = 0
KPD2 132050Z 17008KT 11/M08 A3035 RMK A01 T01111078  RH  026%=      5-min Rain = 0
KPD2 132051Z 16008KT 11/M08 A3035 RMK A01 T01101078  RH  026%=      5-min Rain = 0
KPD2 132052Z 15006KT 11/M08 A3035 RMK A01 T01111077  RH  026%=      5-min Rain = 0
KPD2 132053Z 16006KT 11/M08 A3035 RMK A01 T01121077  RH  026%=      5-min Rain = 0
KPD2 132054Z 15007KT 11/M08 A3035 RMK A01 T01141076  RH  026%=      5-min Rain = 0
KPD2 132055Z 17008KT 12/M08 A3035 RMK A01 T01151075  RH  026%=      5-min Rain = 0
KPD2 132056Z 17008KT 12/M08 A3035 RMK A01 T01161076  RH  025%=      5-min Rain = 0
KPD2 132057Z 17010KT 11/M08 A3035 RMK A01 T01141078  RH  025%=      5-min Rain = 0
KPD2 132058Z 17011KT 11/M08 A3035 RMK A01 T01111078  RH  026%=      5-min Rain = 0
KPD2 132059Z 16009KT 11/M08 A3035 RMK A01 T01111078  RH  026%=      5-min Rain = 0
KPD2 132100Z 16011KT 11/M08 A3035 RMK A01 T01111077  RH  026%=      5-min Rain = 0
KPD2 132101Z 18007KT 11/M08 A3035 RMK A01 T01111076  RH  026%=      5-min Rain = 0
KPD2 132102Z 19008KT 11/M08 A3035 RMK A01 T01121076  RH  026%=      5-min Rain = 0
KPD2 132103Z 16008KT 11/M08 A3035 RMK A01 T01131077  RH  026%=      5-min Rain = 0
KPD2 132104Z 18012KT 11/M08 A3035 RMK A01 T01121078  RH  026%=      5-min Rain = 0
KPD2 132105Z 18007KT 11/M08 A3035 RMK A01 T01111079  RH  026%=      5-min Rain = 0
KPD2 132106Z 17008KT 11/M08 A3035 RMK A01 T01111079  RH  026%=      5-min Rain = 0
KPD2 132107Z 16006KT 11/M08 A3035 RMK A01 T01111079  RH  026%=      5-min Rain = 0
KPD2 132108Z 17004KT 11/M08 A3035 RMK A01 T01131078  RH  025%=      5-min Rain = 0
KPD2 132109Z 17005KT 11/M08 A3035 RMK A01 T01131079  RH  025%=      5-min Rain = 0
KPD2 132110Z 20006G11KT 11/M08 A3035 RMK A01 T01131080  RH  025%=      5-min Rain = 0
KPD2 132111Z 18009KT 11/M08 A3035 RMK A01 T01131081  RH  025%=      5-min Rain = 0
KPD2 132112Z 22009KT 11/M08 A3035 RMK A01 T01131082  RH  025%=      5-min Rain = 0
KPD2 132113Z 22010KT 11/M08 A3034 RMK A01 T01131083  RH  024%=      5-min Rain = 0
KPD2 132114Z 23010KT 11/M08 A3034 RMK A01 T01131084  RH  024%=      5-min Rain = 0
KPD2 132115Z 20008KT 11/M08 A3034 RMK A01 T01121084  RH  024%=      5-min Rain = 0
KPD2 132116Z 19006KT 11/M08 A3035 RMK A01 T01121083  RH  025%=      5-min Rain = 0
KPD2 132117Z 19010G15KT 11/M09 A3034 RMK A01 T01121085  RH  024%=      5-min Rain = 0
KPD2 132118Z 18007G12KT 11/M09 A3034 RMK A01 T01121085  RH  024%=      5-min Rain = 0
KPD2 132119Z 18007KT 11/M09 A3034 RMK A01 T01111086  RH  024%=      5-min Rain = 0
KPD2 132120Z 17008KT 11/M09 A3034 RMK A01 T01131086  RH  024%=      5-min Rain = 0
KPD2 132121Z 17007KT 11/M09 A3034 RMK A01 T01131088  RH  024%=      5-min Rain = 0
KPD2 132122Z 17006KT 11/M09 A3034 RMK A01 T01121088  RH  024%=      5-min Rain = 0
KPD2 132123Z 15009KT 11/M09 A3034 RMK A01 T01131087  RH  024%=      5-min Rain = 0
KPD2 132124Z 15009KT 11/M09 A3034 RMK A01 T01141089  RH  023%=      5-min Rain = 0
KPD2 132125Z 17011KT 11/M09 A3034 RMK A01 T01141089  RH  023%=      5-min Rain = 0
KPD2 132126Z 17011KT 11/M09 A3034 RMK A01 T01131091  RH  023%=      5-min Rain = 0
KPD2 132127Z 18010KT 11/M09 A3034 RMK A01 T01121091  RH  023%=      5-min Rain = 0
KPD2 132128Z 18007KT 11/M09 A3034 RMK A01 T01111092  RH  023%=      5-min Rain = 0
KPD2 132129Z 17006KT 11/M09 A3034 RMK A01 T01121092  RH  023%=      5-min Rain = 0
KPD2 132130Z 18007KT 11/M09 A3034 RMK A01 T01131091  RH  023%=      5-min Rain = 0
KPD2 132131Z 17005KT 11/M09 A3034 RMK A01 T01141092  RH  023%=      5-min Rain = 0
KPD2 132132Z 16007KT 12/M09 A3034 RMK A01 T01151092  RH  022%=      5-min Rain = 0
KPD2 132133Z 16006KT 12/M09 A3034 RMK A01 T01151094  RH  022%=      5-min Rain = 0
KPD2 132134Z 17008KT 12/M09 A3034 RMK A01 T01151094  RH  022%=      5-min Rain = 0
KPD2 132135Z 15005KT 11/M10 A3034 RMK A01 T01141095  RH  022%=      5-min Rain = 0
KPD2 132136Z 17006KT 12/M10 A3034 RMK A01 T01151095  RH  022%=      5-min Rain = 0
KPD2 132137Z 21004KT 12/M10 A3034 RMK A01 T01151095  RH  022%=      5-min Rain = 0
KPD2 132138Z 18001KT 12/M09 A3034 RMK A01 T01161094  RH  022%=      5-min Rain = 0
KPD2 132139Z 19004KT 12/M10 A3034 RMK A01 T01171095  RH  022%=      5-min Rain = 0
KPD2 132140Z 19006KT 12/M10 A3034 RMK A01 T01181095  RH  022%=      5-min Rain = 0
KPD2 132141Z 21004KT 12/M10 A3034 RMK A01 T01181096  RH  022%=      5-min Rain = 0
KPD2 132142Z 21007KT 12/M10 A3034 RMK A01 T01191095  RH  021%=      5-min Rain = 0
KPD2 132143Z 18006KT 12/M10 A3034 RMK A01 T01201095  RH  021%=      5-min Rain = 0
KPD2 132144Z 16006KT 12/M10 A3034 RMK A01 T01191098  RH  021%=      5-min Rain = 0
KPD2 132145Z 17004KT 12/M10 A3033 RMK A01 T01171099  RH  021%=      5-min Rain = 0
KPD2 132146Z 19003KT 12/M10 A3033 RMK A01 T01161097  RH  021%=      5-min Rain = 0
KPD2 132147Z 20004KT 12/M10 A3033 RMK A01 T01171096  RH  021%=      5-min Rain = 0
KPD2 132148Z 17008KT 12/M10 A3033 RMK A01 T01191095  RH  021%=      5-min Rain = 0
KPD2 132149Z 16010KT 12/M10 A3033 RMK A01 T01201097  RH  021%=      5-min Rain = 0
KPD2 132150Z 18006G11KT 12/M10 A3033 RMK A01 T01171099  RH  021%=      5-min Rain = 0
KPD2 132151Z 17007KT 12/M10 A3033 RMK A01 T01161098  RH  021%=      5-min Rain = 0
KPD2 132152Z 16005KT 12/M10 A3033 RMK A01 T01151098  RH  021%=      5-min Rain = 0
KPD2 132153Z 16005KT 12/M10 A3033 RMK A01 T01161097  RH  021%=      5-min Rain = 0
KPD2 132154Z 21005KT 12/M10 A3033 RMK A01 T01171097  RH  021%=      5-min Rain = 0
KPD2 132155Z 20006KT 12/M10 A3033 RMK A01 T01181097  RH  021%=      5-min Rain = 0
KPD2 132156Z 21008KT 12/M10 A3033 RMK A01 T01181097  RH  021%=      5-min Rain = 0
KPD2 132157Z 17007KT 12/M10 A3033 RMK A01 T01171098  RH  021%=      5-min Rain = 0
KPD2 132158Z 18009KT 12/M10 A3033 RMK A01 T01161098  RH  021%=      5-min Rain = 0
KPD2 132159Z 18005KT 12/M10 A3033 RMK A01 T01151099  RH  021%=      5-min Rain = 0
KPD2 132200Z 20004KT 11/M10 A3033 RMK A01 T01141099  RH  021%=      5-min Rain = 0
KPD2 132201Z 19004KT 12/M10 A3033 RMK A01 T01151097  RH  022%=      5-min Rain = 0
KPD2 132202Z 15005KT 12/M10 A3033 RMK A01 T01171097  RH  021%=      5-min Rain = 0
KPD2 132203Z 18009KT 12/M10 A3033 RMK A01 T01181097  RH  021%=      5-min Rain = 0
KPD2 132204Z 15012KT 12/M10 A3032 RMK A01 T01181096  RH  021%=      5-min Rain = 0
KPD2 132205Z 16006G11KT 12/M10 A3033 RMK A01 T01171097  RH  021%=      5-min Rain = 0
KPD2 132206Z 20005KT 12/M10 A3032 RMK A01 T01161097  RH  022%=      5-min Rain = 0
KPD2 132207Z 19005KT 12/M10 A3032 RMK A01 T01151097  RH  022%=      5-min Rain = 0
KPD2 132208Z 19006KT 12/M10 A3032 RMK A01 T01151097  RH  022%=      5-min Rain = 0
KPD2 132209Z 19005KT 12/M10 A3032 RMK A01 T01161096  RH  022%=      5-min Rain = 0
KPD2 132210Z 18008KT 12/M10 A3032 RMK A01 T01171095  RH  022%=      5-min Rain = 0
KPD2 132211Z 17008G13KT 12/M10 A3032 RMK A01 T01181095  RH  022%=      5-min Rain = 0
KPD2 132212Z 16008KT 12/M10 A3032 RMK A01 T01171096  RH  022%=      5-min Rain = 0
KPD2 132213Z 17007KT 12/M10 A3032 RMK A01 T01171096  RH  022%=      5-min Rain = 0
KPD2 132214Z 19007KT 12/M10 A3032 RMK A01 T01171096  RH  022%=      5-min Rain = 0
KPD2 132215Z 17007KT 12/M10 A3032 RMK A01 T01161096  RH  022%=      5-min Rain = 0
KPD2 132216Z 15008KT 12/M10 A3032 RMK A01 T01161095  RH  022%=      5-min Rain = 0
KPD2 132217Z 16008KT 12/M09 A3032 RMK A01 T01161094  RH  022%=      5-min Rain = 0
KPD2 132218Z 18008KT 12/M09 A3032 RMK A01 T01161094  RH  022%=      5-min Rain = 0
KPD2 132219Z 15007KT 12/M09 A3032 RMK A01 T01161094  RH  022%=      5-min Rain = 0
KPD2 132220Z 17011KT 12/M09 A3032 RMK A01 T01161093  RH  022%=      5-min Rain = 0
KPD2 132221Z 17005KT 12/M09 A3032 RMK A01 T01161092  RH  022%=      5-min Rain = 0
KPD2 132222Z 17007KT 11/M09 A3032 RMK A01 T01141092  RH  023%=      5-min Rain = 0
KPD2 132223Z 17011KT 11/M09 A3032 RMK A01 T01131091  RH  023%=      5-min Rain = 0
KPD2 132224Z 17007KT 11/M09 A3032 RMK A01 T01121091  RH  023%=      5-min Rain = 0
KPD2 132225Z 16007KT 11/M09 A3032 RMK A01 T01121090  RH  023%=      5-min Rain = 0
KPD2 132226Z 20006KT 11/M09 A3032 RMK A01 T01121088  RH  024%=      5-min Rain = 0
KPD2 132227Z 21006KT 11/M09 A3032 RMK A01 T01121087  RH  024%=      5-min Rain = 0
KPD2 132228Z 21008G13KT 11/M09 A3032 RMK A01 T01131086  RH  024%=      5-min Rain = 0
KPD2 132229Z 19008KT 11/M09 A3032 RMK A01 T01131087  RH  024%=      5-min Rain = 0
KPD2 132230Z 18005KT 11/M09 A3032 RMK A01 T01121087  RH  024%=      5-min Rain = 0
KPD2 132231Z 19004KT 11/M09 A3032 RMK A01 T01121087  RH  024%=      5-min Rain = 0
KPD2 132232Z 18005KT 11/M09 A3032 RMK A01 T01121087  RH  024%=      5-min Rain = 0
KPD2 132233Z 16007KT 11/M09 A3032 RMK A01 T01121087  RH  024%=      5-min Rain = 0
KPD2 132234Z 16007KT 11/M09 A3032 RMK A01 T01131086  RH  024%=      5-min Rain = 0
KPD2 132235Z 16009G14KT 11/M09 A3032 RMK A01 T01121086  RH  024%=      5-min Rain = 0
KPD2 132236Z 21011G19KT 11/M09 A3032 RMK A01 T01121085  RH  024%=      5-min Rain = 0
KPD2 132237Z 19013KT 11/M08 A3032 RMK A01 T01121084  RH  024%=      5-min Rain = 0
KPD2 132238Z 20005KT 11/M08 A3033 RMK A01 T01111084  RH  025%=      5-min Rain = 0
KPD2 132239Z 17008KT 11/M08 A3033 RMK A01 T01101084  RH  025%=      5-min Rain = 0
KPD2 132240Z 16008KT 11/M08 A3032 RMK A01 T01101084  RH  025%=      5-min Rain = 0
KPD2 132241Z 18005KT 11/M08 A3032 RMK A01 T01091084  RH  025%=      5-min Rain = 0
KPD2 132242Z 16004KT 11/M08 A3032 RMK A01 T01101083  RH  025%=      5-min Rain = 0
KPD2 132243Z 16005KT 11/M08 A3032 RMK A01 T01101083  RH  025%=      5-min Rain = 0
KPD2 132244Z 16007KT 11/M08 A3032 RMK A01 T01111083  RH  025%=      5-min Rain = 0
KPD2 132245Z 18007KT 11/M08 A3032 RMK A01 T01111083  RH  025%=      5-min Rain = 0
KPD2 132246Z 16008KT 11/M08 A3032 RMK A01 T01111082  RH  025%=      5-min Rain = 0
KPD2 132247Z 14007KT 11/M08 A3032 RMK A01 T01111082  RH  025%=      5-min Rain = 0
KPD2 132248Z 15006KT 11/M08 A3032 RMK A01 T01101083  RH  025%=      5-min Rain = 0
KPD2 132249Z 13009KT 11/M08 A3032 RMK A01 T01101083  RH  025%=      5-min Rain = 0
KPD2 132250Z 14010KT 11/M08 A3032 RMK A01 T01101082  RH  025%=      5-min Rain = 0
KPD2 132251Z 15009KT 11/M08 A3032 RMK A01 T01101082  RH  025%=      5-min Rain = 0
KPD2 132252Z 16009KT 11/M08 A3032 RMK A01 T01101083  RH  025%=      5-min Rain = 0
KPD2 132253Z 16011KT 11/M08 A3032 RMK A01 T01101083  RH  025%=      5-min Rain = 0
KPD2 132254Z 19007KT 11/M08 A3032 RMK A01 T01091084  RH  025%=      5-min Rain = 0
KPD2 132255Z 15007G12KT 11/M08 A3032 RMK A01 T01091083  RH  025%=      5-min Rain = 0
KPD2 132256Z 18009KT 11/M08 A3032 RMK A01 T01081083  RH  025%=      5-min Rain = 0
KPD2 132257Z 15007KT 11/M08 A3032 RMK A01 T01081084  RH  025%=      5-min Rain = 0
KPD2 132258Z 14008KT 11/M08 A3032 RMK A01 T01081084  RH  025%=      5-min Rain = 0
KPD2 132259Z 16006KT 11/M09 A3032 RMK A01 T01081085  RH  025%=      5-min Rain = 0
KPD2 132300Z 15008KT 11/M09 A3032 RMK A01 T01081085  RH  025%=      5-min Rain = 0
KPD2 132301Z 18009KT 11/M09 A3032 RMK A01 T01081085  RH  025%=      5-min Rain = 0
KPD2 132302Z 18007KT 11/M09 A3032 RMK A01 T01081085  RH  025%=      5-min Rain = 0
KPD2 132303Z 17004KT 11/M09 A3032 RMK A01 T01071086  RH  025%=      5-min Rain = 0
KPD2 132304Z 15007KT 11/M09 A3032 RMK A01 T01061086  RH  025%=      5-min Rain = 0
KPD2 132305Z 15005KT 11/M09 A3032 RMK A01 T01061087  RH  025%=      5-min Rain = 0
KPD2 132306Z 15008KT 11/M09 A3032 RMK A01 T01061088  RH  025%=      5-min Rain = 0
KPD2 132307Z 19004KT 11/M09 A3032 RMK A01 T01061088  RH  025%=      5-min Rain = 0
KPD2 132308Z 21006KT 11/M09 A3032 RMK A01 T01061088  RH  025%=      5-min Rain = 0
KPD2 132309Z 16006G13KT 11/M09 A3032 RMK A01 T01061090  RH  024%=      5-min Rain = 0
KPD2 132310Z 16011KT 11/M09 A3032 RMK A01 T01051090  RH  024%=      5-min Rain = 0
KPD2 132311Z 16005KT 10/M09 A3032 RMK A01 T01041091  RH  024%=      5-min Rain = 0
KPD2 132312Z 14006KT 10/M09 A3032 RMK A01 T01041091  RH  024%=      5-min Rain = 0
KPD2 132313Z 16007G12KT 10/M09 A3032 RMK A01 T01031091  RH  025%=      5-min Rain = 0
KPD2 132314Z 18008KT 10/M09 A3032 RMK A01 T01031091  RH  025%=      5-min Rain = 0
KPD2 132315Z 15008KT 10/M09 A3032 RMK A01 T01021091  RH  025%=      5-min Rain = 0
KPD2 132316Z 14010KT 10/M09 A3032 RMK A01 T01011092  RH  025%=      5-min Rain = 0
KPD2 132317Z 16010KT 10/M09 A3032 RMK A01 T01001092  RH  025%=      5-min Rain = 0
KPD2 132318Z 17005KT 10/M09 A3032 RMK A01 T00991093  RH  025%=      5-min Rain = 0
KPD2 132319Z 20006G12KT 10/M09 A3032 RMK A01 T00991093  RH  025%=      5-min Rain = 0
KPD2 132320Z 20006KT 10/M09 A3032 RMK A01 T00991093  RH  025%=      5-min Rain = 0
KPD2 132321Z 21007KT 10/M09 A3032 RMK A01 T00981093  RH  025%=      5-min Rain = 0
KPD2 132322Z 20006KT 10/M09 A3032 RMK A01 T00981093  RH  025%=      5-min Rain = 0
KPD2 132323Z 19005KT 10/M09 A3032 RMK A01 T00981093  RH  025%=      5-min Rain = 0
KPD2 132324Z 18005KT 10/M09 A3032 RMK A01 T00981093  RH  025%=      5-min Rain = 0
KPD2 132325Z 14006KT 10/M09 A3032 RMK A01 T00981094  RH  025%=      5-min Rain = 0
KPD2 132326Z 14008KT 10/M09 A3032 RMK A01 T00981094  RH  025%=      5-min Rain = 0
KPD2 132327Z 15008G13KT 10/M09 A3032 RMK A01 T00981094  RH  025%=      5-min Rain = 0
KPD2 132328Z 16008KT 10/M10 A3032 RMK A01 T00971095  RH  025%=      5-min Rain = 0
KPD2 132329Z 16006KT 10/M10 A3032 RMK A01 T00961095  RH  025%=      5-min Rain = 0
KPD2 132330Z 16009KT 10/M10 A3032 RMK A01 T00961095  RH  025%=      5-min Rain = 0
KPD2 132331Z 13007KT 10/M10 A3032 RMK A01 T00951095  RH  025%=      5-min Rain = 0
KPD2 132332Z 12007KT 10/M10 A3032 RMK A01 T00951095  RH  025%=      5-min Rain = 0
KPD2 132333Z 14007KT 10/M10 A3032 RMK A01 T00951095  RH  025%=      5-min Rain = 0
KPD2 132334Z 15010KT 10/M10 A3032 RMK A01 T00951095  RH  025%=      5-min Rain = 0
KPD2 132335Z 15005KT 09/M10 A3032 RMK A01 T00941095  RH  025%=      5-min Rain = 0
KPD2 132336Z 14005KT 09/M10 A3032 RMK A01 T00941095  RH  025%=      5-min Rain = 0
KPD2 132337Z 16007KT 09/M10 A3032 RMK A01 T00941095  RH  025%=      5-min Rain = 0
KPD2 132338Z 16006KT 09/M10 A3032 RMK A01 T00941095  RH  025%=      5-min Rain = 0
KPD2 132339Z 16007KT 09/M10 A3032 RMK A01 T00931095  RH  025%=      5-min Rain = 0
KPD2 132340Z 15008KT 09/M10 A3032 RMK A01 T00931095  RH  025%=      5-min Rain = 0
KPD2 132341Z 14006KT 09/M10 A3032 RMK A01 T00931095  RH  025%=      5-min Rain = 0
KPD2 132342Z 13009KT 09/M10 A3031 RMK A01 T00931095  RH  025%=      5-min Rain = 0
KPD2 132343Z 15010KT 09/M10 A3031 RMK A01 T00931095  RH  025%=      5-min Rain = 0
KPD2 132344Z 15008KT 09/M10 A3031 RMK A01 T00931095  RH  026%=      5-min Rain = 0
KPD2 132345Z 14007KT 09/M10 A3031 RMK A01 T00921095  RH  026%=      5-min Rain = 0
KPD2 132346Z 14009KT 09/M10 A3031 RMK A01 T00921096  RH  026%=      5-min Rain = 0
KPD2 132347Z 13008KT 09/M10 A3031 RMK A01 T00911096  RH  026%=      5-min Rain = 0
KPD2 132348Z 13009KT 09/M10 A3031 RMK A01 T00921096  RH  026%=      5-min Rain = 0
KPD2 132349Z 16008KT 09/M10 A3031 RMK A01 T00911096  RH  026%=      5-min Rain = 0
KPD2 132350Z 15008KT 09/M10 A3031 RMK A01 T00911096  RH  026%=      5-min Rain = 0
KPD2 132351Z 16008KT 09/M10 A3031 RMK A01 T00911096  RH  026%=      5-min Rain = 0
KPD2 132352Z 13009KT 09/M10 A3031 RMK A01 T00911096  RH  026%=      5-min Rain = 0
KPD2 132353Z 14007KT 09/M10 A3031 RMK A01 T00911096  RH  026%=      5-min Rain = 0
KPD2 132354Z 16008KT 09/M10 A3031 RMK A01 T00911097  RH  026%=      5-min Rain = 0
KPD2 132355Z 14008KT 09/M10 A3031 RMK A01 T00911097  RH  026%=      5-min Rain = 0
KPD2 132356Z 14009KT 09/M10 A3031 RMK A01 T00911097  RH  026%=      5-min Rain = 0
KPD2 132357Z 14008KT 09/M10 A3031 RMK A01 T00901097  RH  026%=      5-min Rain = 0
KPD2 132358Z 13009KT 09/M10 A3031 RMK A01 T00891097  RH  026%=      5-min Rain = 0
KPD2 132359Z 14009KT 09/M10 A3031 RMK A01 T00881098  RH  026%=      5-min Rain = 0
KPD2 140000Z 15009KT 09/M10 A3031 RMK A01 T00881097  RH  026%=      5-min Rain = 0
KPD2 140001Z 15006KT 09/M10 A3031 RMK A01 T00881097  RH  026%=      5-min Rain = 0
KPD2 140002Z 13007KT 09/M10 A3031 RMK A01 T00881097  RH  026%=      5-min Rain = 0
KPD2 140003Z 13006KT 09/M10 A3031 RMK A01 T00871097  RH  026%=      5-min Rain = 0
KPD2 140004Z 15008KT 09/M10 A3031 RMK A01 T00861098  RH  026%=      5-min Rain = 0
KPD2 140005Z 14006KT 09/M10 A3031 RMK A01 T00861098  RH  026%=      5-min Rain = 0
KPD2 140006Z 13006KT 09/M10 A3031 RMK A01 T00851098  RH  026%=      5-min Rain = 0
KPD2 140007Z 14007KT 08/M10 A3031 RMK A01 T00841098  RH  026%=      5-min Rain = 0
KPD2 140008Z 13007KT 08/M10 A3031 RMK A01 T00831098  RH  027%=      5-min Rain = 0
KPD2 140009Z 15008KT 08/M10 A3031 RMK A01 T00811099  RH  027%=      5-min Rain = 0
KPD2 140010Z 12006KT 08/M10 A3031 RMK A01 T00811098  RH  027%=      5-min Rain = 0
KPD2 140011Z 12007KT 08/M10 A3031 RMK A01 T00811098  RH  027%=      5-min Rain = 0
KPD2 140012Z 12007KT 08/M10 A3031 RMK A01 T00811098  RH  027%=      5-min Rain = 0
KPD2 140013Z 13006KT 08/M10 A3031 RMK A01 T00811098  RH  027%=      5-min Rain = 0
KPD2 140014Z 13007KT 08/M10 A3031 RMK A01 T00801098  RH  027%=      5-min Rain = 0
KPD2 140015Z 15007KT 08/M10 A3031 RMK A01 T00791098  RH  027%=      5-min Rain = 0
KPD2 140016Z 14006KT 08/M10 A3031 RMK A01 T00791098  RH  027%=      5-min Rain = 0
KPD2 140017Z 13007KT 08/M10 A3031 RMK A01 T00791098  RH  027%=      5-min Rain = 0
KPD2 140018Z 14008KT 08/M10 A3031 RMK A01 T00791098  RH  027%=      5-min Rain = 0
KPD2 140019Z 14009KT 08/M10 A3031 RMK A01 T00791098  RH  027%=      5-min Rain = 0
KPD2 140020Z 14006KT 08/M10 A3031 RMK A01 T00791098  RH  027%=      5-min Rain = 0
KPD2 140021Z 15008KT 08/M10 A3031 RMK A01 T00791099  RH  027%=      5-min Rain = 0
KPD2 140022Z 15008KT 08/M10 A3031 RMK A01 T00791099  RH  027%=      5-min Rain = 0
KPD2 140023Z 14007KT 08/M10 A3031 RMK A01 T00791099  RH  027%=      5-min Rain = 0
KPD2 140024Z 13008KT 08/M10 A3031 RMK A01 T00791099  RH  027%=      5-min Rain = 0
KPD2 140025Z 13008KT 08/M10 A3031 RMK A01 T00791099  RH  027%=      5-min Rain = 0
KPD2 140026Z 14007KT 08/M10 A3031 RMK A01 T00791099  RH  027%=      5-min Rain = 0
KPD2 140027Z 14006KT 08/M10 A3031 RMK A01 T00791099  RH  027%=      5-min Rain = 0
KPD2 140028Z 14009KT 08/M10 A3031 RMK A01 T00791099  RH  027%=      5-min Rain = 0
KPD2 140029Z 14008KT 08/M10 A3031 RMK A01 T00781099  RH  027%=      5-min Rain = 0
KPD2 140030Z 14008KT 08/M10 A3031 RMK A01 T00781099  RH  027%=      5-min Rain = 0
KPD2 140031Z 14007KT 08/M10 A3031 RMK A01 T00771099  RH  027%=      5-min Rain = 0
KPD2 140032Z 14009KT 08/M10 A3031 RMK A01 T00771099  RH  027%=      5-min Rain = 0
KPD2 140033Z 13008KT 08/M10 A3031 RMK A01 T00771099  RH  028%=      5-min Rain = 0
KPD2 140034Z 13009KT 08/M10 A3031 RMK A01 T00771098  RH  028%=      5-min Rain = 0
KPD2 140035Z 13007KT 08/M10 A3031 RMK A01 T00761099  RH  028%=      5-min Rain = 0
KPD2 140036Z 13008KT 08/M10 A3031 RMK A01 T00751099  RH  028%=      5-min Rain = 0
KPD2 140037Z 13008KT 07/M10 A3031 RMK A01 T00741100  RH  028%=      5-min Rain = 0
KPD2 140038Z 13008KT 07/M10 A3031 RMK A01 T00731100  RH  028%=      5-min Rain = 0
KPD2 140039Z 13009KT 07/M10 A3031 RMK A01 T00731100  RH  028%=      5-min Rain = 0
KPD2 140040Z 13008KT 07/M10 A3031 RMK A01 T00731100  RH  028%=      5-min Rain = 0
KPD2 140041Z 13009KT 07/M10 A3031 RMK A01 T00731100  RH  028%=      5-min Rain = 0
KPD2 140042Z 12008KT 07/M10 A3031 RMK A01 T00721100  RH  028%=      5-min Rain = 0
KPD2 140043Z 12008KT 07/M10 A3031 RMK A01 T00721100  RH  028%=      5-min Rain = 0
KPD2 140044Z 13008KT 07/M10 A3031 RMK A01 T00711101  RH  028%=      5-min Rain = 0
KPD2 140045Z 13009KT 07/M10 A3031 RMK A01 T00711101  RH  028%=      5-min Rain = 0
KPD2 140046Z 13008KT 07/M10 A3031 RMK A01 T00701101  RH  028%=      5-min Rain = 0
KPD2 140047Z 13007KT 07/M10 A3031 RMK A01 T00701101  RH  028%=      5-min Rain = 0
KPD2 140048Z 13009KT 07/M10 A3032 RMK A01 T00691102  RH  029%=      5-min Rain = 0
KPD2 140049Z 13008KT 07/M10 A3032 RMK A01 T00681102  RH  029%=      5-min Rain = 0
KPD2 140050Z 12007KT 07/M10 A3032 RMK A01 T00681102  RH  029%=      5-min Rain = 0
KPD2 140051Z 13007KT 07/M10 A3032 RMK A01 T00681102  RH  029%=      5-min Rain = 0
KPD2 140052Z 12006KT 07/M10 A3032 RMK A01 T00671102  RH  029%=      5-min Rain = 0
KPD2 140053Z 12006KT 07/M10 A3032 RMK A01 T00661103  RH  029%=      5-min Rain = 0
KPD2 140054Z 12007KT 07/M10 A3032 RMK A01 T00651103  RH  029%=      5-min Rain = 0
KPD2 140055Z 12007KT 06/M10 A3032 RMK A01 T00641103  RH  029%=      5-min Rain = 0
KPD2 140056Z 12007KT 06/M10 A3032 RMK A01 T00641103  RH  029%=      5-min Rain = 0
KPD2 140057Z 12007KT 06/M10 A3032 RMK A01 T00631103  RH  029%=      5-min Rain = 0
KPD2 140058Z 12008KT 06/M10 A3032 RMK A01 T00621103  RH  029%=      5-min Rain = 0
KPD2 140059Z 12007KT 06/M10 A3032 RMK A01 T00631103  RH  029%=      5-min Rain = 0
KPD2 140100Z 12007KT 06/M10 A3032 RMK A01 T00621104  RH  029%=      5-min Rain = 0
KPD2 140101Z 12007KT 06/M10 A3032 RMK A01 T00621104  RH  029%=      5-min Rain = 0
KPD2 140102Z 12006KT 06/M10 A3032 RMK A01 T00611104  RH  029%=      5-min Rain = 0
KPD2 140103Z 12007KT 06/M11 A3032 RMK A01 T00611105  RH  029%=      5-min Rain = 0
KPD2 140104Z 12006KT 06/M11 A3032 RMK A01 T00601105  RH  029%=      5-min Rain = 0
KPD2 140105Z 12007KT 06/M11 A3032 RMK A01 T00601105  RH  029%=      5-min Rain = 0
KPD2 140106Z 12008KT 06/M11 A3032 RMK A01 T00591105  RH  029%=      5-min Rain = 0
KPD2 140107Z 12007KT 06/M11 A3032 RMK A01 T00591106  RH  029%=      5-min Rain = 0
KPD2 140108Z 12007KT 06/M11 A3032 RMK A01 T00581107  RH  030%=      5-min Rain = 0
KPD2 140109Z 12007KT 06/M11 A3032 RMK A01 T00571107  RH  030%=      5-min Rain = 0
KPD2 140110Z 12007KT 06/M11 A3032 RMK A01 T00571107  RH  030%=      5-min Rain = 0
KPD2 140111Z 12006KT 06/M11 A3032 RMK A01 T00571107  RH  030%=      5-min Rain = 0
KPD2 140112Z 12006KT 06/M11 A3033 RMK A01 T00561108  RH  030%=      5-min Rain = 0
KPD2 140113Z 12006KT 06/M11 A3033 RMK A01 T00561108  RH  029%=      5-min Rain = 0
KPD2 140114Z 12007KT 06/M11 A3033 RMK A01 T00561109  RH  029%=      5-min Rain = 0
KPD2 140115Z 12007KT 06/M11 A3033 RMK A01 T00561109  RH  029%=      5-min Rain = 0
KPD2 140116Z 12007KT 06/M11 A3033 RMK A01 T00551109  RH  029%=      5-min Rain = 0
KPD2 140117Z 12007KT 06/M11 A3033 RMK A01 T00551110  RH  029%=      5-min Rain = 0
KPD2 140118Z 12007KT 05/M11 A3033 RMK A01 T00541110  RH  029%=      5-min Rain = 0
KPD2 140119Z 12008KT 05/M11 A3033 RMK A01 T00541110  RH  030%=      5-min Rain = 0
KPD2 140120Z 12007KT 05/M11 A3033 RMK A01 T00531110  RH  030%=      5-min Rain = 0
KPD2 140121Z 12007KT 05/M11 A3033 RMK A01 T00531110  RH  030%=      5-min Rain = 0
KPD2 140122Z 12007KT 05/M11 A3033 RMK A01 T00531110  RH  030%=      5-min Rain = 0
KPD2 140123Z 12007KT 05/M11 A3032 RMK A01 T00531111  RH  030%=      5-min Rain = 0
KPD2 140124Z 12007KT 05/M11 A3032 RMK A01 T00531111  RH  030%=      5-min Rain = 0
KPD2 140125Z 12007KT 05/M11 A3032 RMK A01 T00521110  RH  030%=      5-min Rain = 0
KPD2 140126Z 12007KT 05/M11 A3032 RMK A01 T00521111  RH  030%=      5-min Rain = 0
KPD2 140127Z 12007KT 05/M11 A3032 RMK A01 T00521110  RH  030%=      5-min Rain = 0
KPD2 140128Z 12006KT 05/M11 A3033 RMK A01 T00521110  RH  030%=      5-min Rain = 0
KPD2 140129Z 13005KT 05/M11 A3033 RMK A01 T00521110  RH  030%=      5-min Rain = 0
KPD2 140130Z 12006KT 05/M11 A3033 RMK A01 T00521110  RH  030%=      5-min Rain = 0
KPD2 140131Z 12007KT 05/M11 A3033 RMK A01 T00521110  RH  030%=      5-min Rain = 0
KPD2 140132Z 12006KT 05/M11 A3033 RMK A01 T00521110  RH  030%=      5-min Rain = 0
KPD2 140133Z 12007KT 05/M11 A3033 RMK A01 T00521110  RH  030%=      5-min Rain = 0
KPD2 140134Z 13007KT 05/M11 A3033 RMK A01 T00531110  RH  030%=      5-min Rain = 0
KPD2 140135Z 13008KT 05/M11 A3033 RMK A01 T00531110  RH  030%=      5-min Rain = 0
KPD2 140136Z 13008KT 05/M11 A3033 RMK A01 T00531110  RH  030%=      5-min Rain = 0
KPD2 140137Z 13008KT 05/M11 A3033 RMK A01 T00541109  RH  030%=      5-min Rain = 0
KPD2 140138Z 14007KT 05/M11 A3033 RMK A01 T00541110  RH  030%=      5-min Rain = 0
KPD2 140139Z 12008KT 05/M11 A3033 RMK A01 T00541110  RH  030%=      5-min Rain = 0
KPD2 140140Z 12007KT 05/M11 A3033 RMK A01 T00541110  RH  030%=      5-min Rain = 0
KPD2 140141Z 12008KT 05/M11 A3033 RMK A01 T00531111  RH  030%=      5-min Rain = 0
KPD2 140142Z 11008KT 05/M11 A3033 RMK A01 T00531110  RH  030%=      5-min Rain = 0
KPD2 140143Z 12008KT 05/M11 A3033 RMK A01 T00531111  RH  030%=      5-min Rain = 0
KPD2 140144Z 13007KT 05/M11 A3033 RMK A01 T00541111  RH  030%=      5-min Rain = 0
KPD2 140145Z 11007KT 05/M11 A3033 RMK A01 T00541111  RH  029%=      5-min Rain = 0
KPD2 140146Z 10007KT 05/M11 A3033 RMK A01 T00541111  RH  029%=      5-min Rain = 0
KPD2 140147Z 11006KT 05/M11 A3033 RMK A01 T00541112  RH  029%=      5-min Rain = 0
KPD2 140148Z 10007KT 05/M11 A3033 RMK A01 T00541112  RH  029%=      5-min Rain = 0
KPD2 140149Z 12006KT 05/M11 A3033 RMK A01 T00541112  RH  029%=      5-min Rain = 0
KPD2 140150Z 12006KT 05/M11 A3033 RMK A01 T00541113  RH  029%=      5-min Rain = 0
KPD2 140151Z 12006KT 05/M11 A3033 RMK A01 T00531114  RH  029%=      5-min Rain = 0
KPD2 140152Z 10006KT 05/M11 A3033 RMK A01 T00521114  RH  029%=      5-min Rain = 0
KPD2 140153Z 10006KT 05/M11 A3033 RMK A01 T00511114  RH  029%=      5-min Rain = 0
KPD2 140154Z 11006KT 05/M11 A3033 RMK A01 T00501114  RH  029%=      5-min Rain = 0
KPD2 140155Z 11007KT 05/M11 A3033 RMK A01 T00501114  RH  029%=      5-min Rain = 0
KPD2 140156Z 11007KT 05/M11 A3033 RMK A01 T00501114  RH  029%=      5-min Rain = 0
KPD2 140157Z 11006KT 05/M11 A3033 RMK A01 T00501114  RH  029%=      5-min Rain = 0
KPD2 140158Z 12006KT 05/M11 A3033 RMK A01 T00501114  RH  029%=      5-min Rain = 0
KPD2 140159Z 12005KT 05/M12 A3033 RMK A01 T00481115  RH  029%=      5-min Rain = 0
KPD2 140200Z 12007KT 05/M12 A3033 RMK A01 T00471116  RH  030%=      5-min Rain = 0
KPD2 140201Z 11005KT 05/M12 A3033 RMK A01 T00471115  RH  030%=      5-min Rain = 0
KPD2 140202Z 12004KT 05/M12 A3033 RMK A01 T00461116  RH  030%=      5-min Rain = 0
KPD2 140203Z 12005KT 05/M12 A3033 RMK A01 T00451116  RH  030%=      5-min Rain = 0
KPD2 140204Z 13006KT 04/M12 A3033 RMK A01 T00441116  RH  030%=      5-min Rain = 0
KPD2 140205Z 13006KT 04/M12 A3033 RMK A01 T00431116  RH  030%=      5-min Rain = 0
KPD2 140206Z 12007KT 04/M12 A3033 RMK A01 T00421117  RH  031%=      5-min Rain = 0
KPD2 140207Z 11005KT 04/M12 A3033 RMK A01 T00411116  RH  031%=      5-min Rain = 0
KPD2 140208Z 12006KT 04/M12 A3033 RMK A01 T00411116  RH  031%=      5-min Rain = 0
KPD2 140209Z 12006KT 04/M12 A3033 RMK A01 T00421116  RH  031%=      5-min Rain = 0
KPD2 140210Z 11004KT 04/M12 A3033 RMK A01 T00421116  RH  031%=      5-min Rain = 0
KPD2 140211Z 10006G12KT 04/M12 A3033 RMK A01 T00421116  RH  031%=      5-min Rain = 0
KPD2 140212Z 10008KT 04/M12 A3033 RMK A01 T00421115  RH  031%=      5-min Rain = 0
KPD2 140213Z 11006KT 05/M11 A3033 RMK A01 T00451114  RH  031%=      5-min Rain = 0
KPD2 140214Z 11005KT 05/M11 A3033 RMK A01 T00461114  RH  030%=      5-min Rain = 0
KPD2 140215Z 12005KT 05/M11 A3033 RMK A01 T00461114  RH  030%=      5-min Rain = 0
KPD2 140216Z 12006KT 05/M11 A3033 RMK A01 T00461114  RH  030%=      5-min Rain = 0
KPD2 140217Z 11008KT 05/M11 A3033 RMK A01 T00461114  RH  030%=      5-min Rain = 0
KPD2 140218Z 12009KT 05/M11 A3033 RMK A01 T00461114  RH  030%=      5-min Rain = 0
KPD2 140219Z 13008KT 05/M11 A3033 RMK A01 T00471114  RH  030%=      5-min Rain = 0
KPD2 140220Z 13008KT 05/M11 A3033 RMK A01 T00471114  RH  030%=      5-min Rain = 0
KPD2 140221Z 13009KT 05/M11 A3033 RMK A01 T00461114  RH  030%=      5-min Rain = 0
KPD2 140222Z 12009KT 05/M12 A3033 RMK A01 T00451115  RH  030%=      5-min Rain = 0
KPD2 140223Z 13009KT 04/M11 A3033 RMK A01 T00441114  RH  031%=      5-min Rain = 0
KPD2 140224Z 13008KT 04/M11 A3033 RMK A01 T00441114  RH  031%=      5-min Rain = 0
KPD2 140225Z 13008KT 04/M11 A3033 RMK A01 T00441114  RH  031%=      5-min Rain = 0
KPD2 140226Z 13008KT 04/M11 A3033 RMK A01 T00441114  RH  031%=      5-min Rain = 0
KPD2 140227Z 13008KT 04/M12 A3033 RMK A01 T00431115  RH  031%=      5-min Rain = 0
KPD2 140228Z 12008KT 04/M12 A3033 RMK A01 T00421115  RH  031%=      5-min Rain = 0
KPD2 140229Z 13008KT 04/M12 A3033 RMK A01 T00411116  RH  031%=      5-min Rain = 0
KPD2 140230Z 13009KT 04/M12 A3033 RMK A01 T00411115  RH  031%=      5-min Rain = 0
KPD2 140231Z 13008KT 04/M12 A3033 RMK A01 T00401115  RH  031%=      5-min Rain = 0
KPD2 140232Z 13010KT 04/M12 A3033 RMK A01 T00411115  RH  031%=      5-min Rain = 0
KPD2 140233Z 13009KT 04/M12 A3033 RMK A01 T00411115  RH  031%=      5-min Rain = 0
KPD2 140234Z 12008KT 04/M12 A3033 RMK A01 T00411115  RH  031%=      5-min Rain = 0
KPD2 140235Z 12009KT 04/M12 A3033 RMK A01 T00411115  RH  031%=      5-min Rain = 0
KPD2 140236Z 12008KT 04/M12 A3033 RMK A01 T00411115  RH  031%=      5-min Rain = 0
KPD2 140237Z 12008KT 04/M12 A3033 RMK A01 T00411115  RH  031%=      5-min Rain = 0
KPD2 140238Z 12009KT 04/M12 A3033 RMK A01 T00411115  RH  031%=      5-min Rain = 0
KPD2 140239Z 12009KT 04/M12 A3033 RMK A01 T00411115  RH  031%=      5-min Rain = 0
KPD2 140240Z 12009KT 04/M12 A3033 RMK A01 T00411115  RH  031%=      5-min Rain = 0
KPD2 140241Z 12008KT 04/M12 A3033 RMK A01 T00421115  RH  031%=      5-min Rain = 0
KPD2 140242Z 12008KT 04/M12 A3033 RMK A01 T00411115  RH  031%=      5-min Rain = 0
KPD2 140243Z 12009KT 04/M12 A3033 RMK A01 T00401115  RH  031%=      5-min Rain = 0
KPD2 140244Z 12008KT 04/M12 A3033 RMK A01 T00401115  RH  031%=      5-min Rain = 0
KPD2 140245Z 12008KT 04/M12 A3033 RMK A01 T00401115  RH  031%=      5-min Rain = 0
KPD2 140246Z 12008KT 04/M12 A3033 RMK A01 T00401115  RH  031%=      5-min Rain = 0
KPD2 140247Z 12007KT 04/M12 A3033 RMK A01 T00401115  RH  031%=      5-min Rain = 0
KPD2 140248Z 12008KT 04/M12 A3033 RMK A01 T00411115  RH  031%=      5-min Rain = 0
KPD2 140249Z 12009KT 04/M12 A3033 RMK A01 T00411115  RH  031%=      5-min Rain = 0
KPD2 140250Z 12007KT 04/M12 A3033 RMK A01 T00411115  RH  031%=      5-min Rain = 0
KPD2 140251Z 13009KT 04/M12 A3033 RMK A01 T00411115  RH  031%=      5-min Rain = 0
KPD2 140252Z 12010KT 04/M12 A3033 RMK A01 T00411115  RH  031%=      5-min Rain = 0
KPD2 140253Z 12010KT 04/M11 A3033 RMK A01 T00421114  RH  031%=      5-min Rain = 0
KPD2 140254Z 12009G14KT 04/M11 A3033 RMK A01 T00421114  RH  031%=      5-min Rain = 0
KPD2 140255Z 12011KT 04/M12 A3033 RMK A01 T00421115  RH  031%=      5-min Rain = 0
KPD2 140256Z 12008KT 04/M12 A3033 RMK A01 T00431115  RH  031%=      5-min Rain = 0
KPD2 140257Z 11009G15KT 04/M12 A3033 RMK A01 T00421115  RH  031%=      5-min Rain = 0
KPD2 140258Z 12010G15KT 04/M12 A3033 RMK A01 T00421115  RH  031%=      5-min Rain = 0
KPD2 140259Z 12010KT 04/M11 A3033 RMK A01 T00431114  RH  031%=      5-min Rain = 0
KPD2 140300Z 12009KT 04/M12 A3033 RMK A01 T00421115  RH  031%=      5-min Rain = 0
KPD2 140301Z 12010KT 04/M12 A3033 RMK A01 T00421115  RH  031%=      5-min Rain = 0
KPD2 140302Z 11010KT 04/M12 A3033 RMK A01 T00411116  RH  031%=      5-min Rain = 0
KPD2 140303Z 12009KT 04/M12 A3033 RMK A01 T00411116  RH  031%=      5-min Rain = 0
KPD2 140304Z 12009KT 04/M12 A3033 RMK A01 T00411115  RH  031%=      5-min Rain = 0
KPD2 140305Z 12008KT 04/M12 A3033 RMK A01 T00401116  RH  031%=      5-min Rain = 0
KPD2 140306Z 12009KT 04/M12 A3033 RMK A01 T00391116  RH  031%=      5-min Rain = 0
KPD2 140307Z 12008KT 04/M12 A3033 RMK A01 T00391116  RH  031%=      5-min Rain = 0
KPD2 140308Z 12009KT 04/M12 A3033 RMK A01 T00381116  RH  031%=      5-min Rain = 0
KPD2 140309Z 12009KT 04/M12 A3033 RMK A01 T00381116  RH  031%=      5-min Rain = 0
KPD2 140310Z 12009KT 04/M12 A3033 RMK A01 T00381116  RH  031%=      5-min Rain = 0
KPD2 140311Z 12008KT 04/M12 A3033 RMK A01 T00381116  RH  031%=      5-min Rain = 0
KPD2 140312Z 12008KT 04/M12 A3033 RMK A01 T00381116  RH  032%=      5-min Rain = 0
KPD2 140313Z 11009KT 04/M12 A3033 RMK A01 T00381116  RH  032%=      5-min Rain = 0
KPD2 140314Z 12010KT 04/M12 A3033 RMK A01 T00381115  RH  032%=      5-min Rain = 0
KPD2 140315Z 12007KT 04/M12 A3033 RMK A01 T00391115  RH  031%=      5-min Rain = 0
KPD2 140316Z 11009KT 04/M12 A3033 RMK A01 T00391116  RH  031%=      5-min Rain = 0
KPD2 140317Z 11008KT 04/M12 A3033 RMK A01 T00391115  RH  031%=      5-min Rain = 0
KPD2 140318Z 11009KT 04/M12 A3033 RMK A01 T00391116  RH  031%=      5-min Rain = 0
KPD2 140319Z 11009KT 04/M12 A3033 RMK A01 T00391115  RH  031%=      5-min Rain = 0
KPD2 140320Z 11009KT 04/M12 A3033 RMK A01 T00401115  RH  031%=      5-min Rain = 0
KPD2 140321Z 12010KT 04/M12 A3033 RMK A01 T00401115  RH  031%=      5-min Rain = 0
KPD2 140322Z 12009KT 04/M12 A3033 RMK A01 T00411115  RH  031%=      5-min Rain = 0
KPD2 140323Z 12008KT 04/M12 A3033 RMK A01 T00401116  RH  031%=      5-min Rain = 0
KPD2 140324Z 11009KT 04/M12 A3033 RMK A01 T00391116  RH  031%=      5-min Rain = 0
KPD2 140325Z 12009KT 04/M12 A3033 RMK A01 T00391116  RH  031%=      5-min Rain = 0
KPD2 140326Z 11007KT 04/M12 A3033 RMK A01 T00381116  RH  031%=      5-min Rain = 0
KPD2 140327Z 11009KT 04/M12 A3034 RMK A01 T00391116  RH  031%=      5-min Rain = 0
KPD2 140328Z 12009KT 04/M12 A3034 RMK A01 T00381116  RH  032%=      5-min Rain = 0
KPD2 140329Z 12007KT 04/M12 A3034 RMK A01 T00381115  RH  032%=      5-min Rain = 0
KPD2 140330Z 12009KT 04/M12 A3034 RMK A01 T00381116  RH  032%=      5-min Rain = 0
KPD2 140331Z 12010KT 04/M12 A3034 RMK A01 T00381116  RH  032%=      5-min Rain = 0
KPD2 140332Z 12009KT 04/M12 A3034 RMK A01 T00371116  RH  032%=      5-min Rain = 0
KPD2 140333Z 11008KT 04/M12 A3034 RMK A01 T00381115  RH  032%=      5-min Rain = 0
KPD2 140334Z 11009KT 04/M12 A3034 RMK A01 T00371116  RH  032%=      5-min Rain = 0
KPD2 140335Z 12010KT 04/M12 A3034 RMK A01 T00371116  RH  032%=      5-min Rain = 0
KPD2 140336Z 12009KT 04/M12 A3033 RMK A01 T00361117  RH  032%=      5-min Rain = 0
KPD2 140337Z 11010KT 04/M12 A3033 RMK A01 T00361117  RH  032%=      5-min Rain = 0
KPD2 140338Z 12008KT 04/M12 A3034 RMK A01 T00351117  RH  032%=      5-min Rain = 0
KPD2 140339Z 12008KT 04/M12 A3034 RMK A01 T00351117  RH  032%=      5-min Rain = 0
KPD2 140340Z 12008KT 03/M12 A3034 RMK A01 T00341117  RH  032%=      5-min Rain = 0
KPD2 140341Z 12007KT 03/M12 A3034 RMK A01 T00341117  RH  032%=      5-min Rain = 0
KPD2 140342Z 11007KT 03/M12 A3034 RMK A01 T00331117  RH  032%=      5-min Rain = 0
KPD2 140343Z 12006KT 03/M12 A3033 RMK A01 T00331118  RH  032%=      5-min Rain = 0
KPD2 140344Z 12006KT 03/M12 A3033 RMK A01 T00331118  RH  032%=      5-min Rain = 0
KPD2 140345Z 12007KT 03/M12 A3033 RMK A01 T00321118  RH  032%=      5-min Rain = 0
KPD2 140346Z 11010KT 03/M12 A3033 RMK A01 T00321118  RH  032%=      5-min Rain = 0
KPD2 140347Z 11011KT 03/M12 A3033 RMK A01 T00321118  RH  033%=      5-min Rain = 0
KPD2 140348Z 11007KT 03/M12 A3033 RMK A01 T00321117  RH  033%=      5-min Rain = 0
KPD2 140349Z 12008KT 03/M12 A3034 RMK A01 T00321117  RH  033%=      5-min Rain = 0
KPD2 140350Z 11007KT 03/M12 A3034 RMK A01 T00321117  RH  033%=      5-min Rain = 0
KPD2 140351Z 11008KT 03/M12 A3034 RMK A01 T00321117  RH  033%=      5-min Rain = 0
KPD2 140352Z 11008KT 03/M12 A3034 RMK A01 T00311118  RH  033%=      5-min Rain = 0
KPD2 140353Z 10008KT 03/M12 A3034 RMK A01 T00311117  RH  033%=      5-min Rain = 0
KPD2 140354Z 11008KT 03/M12 A3034 RMK A01 T00311117  RH  033%=      5-min Rain = 0
KPD2 140355Z 10008KT 03/M12 A3034 RMK A01 T00311117  RH  033%=      5-min Rain = 0
KPD2 140356Z 11008KT 03/M12 A3034 RMK A01 T00321117  RH  033%=      5-min Rain = 0
KPD2 140357Z 11007KT 03/M12 A3034 RMK A01 T00321117  RH  033%=      5-min Rain = 0
KPD2 140358Z 11007KT 03/M12 A3034 RMK A01 T00321117  RH  033%=      5-min Rain = 0
KPD2 140359Z 12007KT 03/M12 A3034 RMK A01 T00321117  RH  033%=      5-min Rain = 0
KPD2 140400Z 11006KT 03/M12 A3034 RMK A01 T00321117  RH  033%=      5-min Rain = 0
KPD2 140401Z 11008KT 03/M12 A3034 RMK A01 T00321117  RH  033%=      5-min Rain = 0
KPD2 140402Z 11008KT 03/M12 A3034 RMK A01 T00321117  RH  033%=      5-min Rain = 0
KPD2 140403Z 11006KT 03/M12 A3034 RMK A01 T00321117  RH  033%=      5-min Rain = 0
KPD2 140404Z 13007KT 03/M12 A3035 RMK A01 T00321117  RH  033%=      5-min Rain = 0
KPD2 140405Z 13006KT 03/M12 A3035 RMK A01 T00311117  RH  033%=      5-min Rain = 0
KPD2 140406Z 13006KT 03/M12 A3035 RMK A01 T00311118  RH  033%=      5-min Rain = 0
KPD2 140407Z 12007KT 03/M12 A3035 RMK A01 T00291118  RH  033%=      5-min Rain = 0
KPD2 140408Z 12008KT 03/M12 A3035 RMK A01 T00291118  RH  033%=      5-min Rain = 0
KPD2 140409Z 11007KT 03/M12 A3035 RMK A01 T00291118  RH  033%=      5-min Rain = 0
KPD2 140410Z 11008KT 03/M12 A3035 RMK A01 T00291118  RH  033%=      5-min Rain = 0
KPD2 140411Z 12007KT 03/M12 A3035 RMK A01 T00291118  RH  033%=      5-min Rain = 0
KPD2 140412Z 11007KT 03/M12 A3035 RMK A01 T00291118  RH  033%=      5-min Rain = 0
KPD2 140413Z 12008KT 03/M12 A3035 RMK A01 T00291118  RH  033%=      5-min Rain = 0
KPD2 140414Z 13008KT 03/M12 A3035 RMK A01 T00291118  RH  033%=      5-min Rain = 0
KPD2 140415Z 11007KT 03/M12 A3035 RMK A01 T00281119  RH  033%=      5-min Rain = 0
KPD2 140416Z 11008KT 03/M12 A3035 RMK A01 T00281119  RH  033%=      5-min Rain = 0
KPD2 140417Z 12007KT 03/M12 A3035 RMK A01 T00281118  RH  033%=      5-min Rain = 0
KPD2 140418Z 11007KT 03/M12 A3035 RMK A01 T00271119  RH  033%=      5-min Rain = 0
KPD2 140419Z 12006KT 03/M12 A3035 RMK A01 T00271119  RH  033%=      5-min Rain = 0
KPD2 140420Z 12007KT 03/M12 A3035 RMK A01 T00271119  RH  033%=      5-min Rain = 0
KPD2 140421Z 12005KT 03/M12 A3035 RMK A01 T00271119  RH  033%=      5-min Rain = 0
KPD2 140422Z 10008KT 03/M12 A3035 RMK A01 T00261119  RH  033%=      5-min Rain = 0
KPD2 140423Z 12006KT 03/M12 A3036 RMK A01 T00261119  RH  033%=      5-min Rain = 0
KPD2 140424Z 12004KT 03/M12 A3036 RMK A01 T00261119  RH  033%=      5-min Rain = 0
KPD2 140425Z 12006KT 03/M12 A3036 RMK A01 T00261120  RH  033%=      5-min Rain = 0
KPD2 140426Z 12006KT 03/M12 A3036 RMK A01 T00261120  RH  033%=      5-min Rain = 0
KPD2 140427Z 12005KT 03/M12 A3036 RMK A01 T00251120  RH  033%=      5-min Rain = 0
KPD2 140428Z 12007KT 03/M12 A3036 RMK A01 T00251120  RH  033%=      5-min Rain = 0
KPD2 140429Z 12006KT 03/M12 A3036 RMK A01 T00251120  RH  034%=      5-min Rain = 0
KPD2 140430Z 10008KT 03/M12 A3036 RMK A01 T00251119  RH  034%=      5-min Rain = 0
KPD2 140431Z 14006KT 03/M12 A3036 RMK A01 T00251119  RH  034%=      5-min Rain = 0
KPD2 140432Z 12005KT 03/M12 A3036 RMK A01 T00271119  RH  033%=      5-min Rain = 0
KPD2 140433Z 10007KT 03/M12 A3036 RMK A01 T00271119  RH  033%=      5-min Rain = 0
KPD2 140434Z 11007KT 03/M12 A3036 RMK A01 T00271119  RH  033%=      5-min Rain = 0
KPD2 140435Z 11006KT 03/M12 A3036 RMK A01 T00281119  RH  033%=      5-min Rain = 0
KPD2 140436Z 14005KT 03/M12 A3036 RMK A01 T00281119  RH  033%=      5-min Rain = 0
KPD2 140437Z 12005KT 03/M12 A3036 RMK A01 T00281119  RH  033%=      5-min Rain = 0
KPD2 140438Z 13006KT 03/M12 A3036 RMK A01 T00261120  RH  033%=      5-min Rain = 0
KPD2 140439Z 12006KT 03/M12 A3036 RMK A01 T00261120  RH  033%=      5-min Rain = 0
KPD2 140440Z 12006KT 03/M12 A3036 RMK A01 T00251120  RH  033%=      5-min Rain = 0
KPD2 140441Z 12006KT 03/M12 A3036 RMK A01 T00261120  RH  033%=      5-min Rain = 0
KPD2 140442Z 13006KT 03/M12 A3036 RMK A01 T00261120  RH  033%=      5-min Rain = 0
KPD2 140443Z 12004KT 03/M12 A3036 RMK A01 T00261120  RH  033%=      5-min Rain = 0
KPD2 140444Z 13005KT 03/M12 A3036 RMK A01 T00251120  RH  033%=      5-min Rain = 0
KPD2 140445Z 12004KT 03/M12 A3036 RMK A01 T00251120  RH  033%=      5-min Rain = 0
KPD2 140446Z 13004KT 02/M12 A3036 RMK A01 T00241121  RH  033%=      5-min Rain = 0
KPD2 140447Z 11003KT 02/M12 A3036 RMK A01 T00241120  RH  034%=      5-min Rain = 0
KPD2 140448Z 12006KT 02/M12 A3036 RMK A01 T00241121  RH  034%=      5-min Rain = 0
KPD2 140449Z 12005KT 02/M12 A3036 RMK A01 T00241120  RH  034%=      5-min Rain = 0
KPD2 140450Z 12004KT 02/M12 A3036 RMK A01 T00231121  RH  034%=      5-min Rain = 0
KPD2 140451Z 12005KT 02/M12 A3036 RMK A01 T00231121  RH  034%=      5-min Rain = 0
KPD2 140452Z 11004KT 02/M12 A3036 RMK A01 T00231121  RH  034%=      5-min Rain = 0
KPD2 140453Z 11005KT 02/M12 A3036 RMK A01 T00231121  RH  034%=      5-min Rain = 0
KPD2 140454Z 12005KT 02/M12 A3036 RMK A01 T00231121  RH  034%=      5-min Rain = 0
KPD2 140455Z 13005KT 02/M12 A3036 RMK A01 T00231121  RH  034%=      5-min Rain = 0
KPD2 140456Z 13004KT 02/M12 A3036 RMK A01 T00231121  RH  034%=      5-min Rain = 0
KPD2 140457Z 13005KT 02/M12 A3036 RMK A01 T00221122  RH  034%=      5-min Rain = 0
KPD2 140458Z 13005KT 02/M12 A3036 RMK A01 T00211122  RH  034%=      5-min Rain = 0
KPD2 140459Z 13005KT 02/M12 A3036 RMK A01 T00211122  RH  034%=      5-min Rain = 0
KPD2 140500Z 13006KT 02/M12 A3036 RMK A01 T00211122  RH  034%=      5-min Rain = 0
KPD2 140501Z 13006KT 02/M12 A3036 RMK A01 T00201122  RH  034%=      5-min Rain = 0
KPD2 140502Z 13006KT 02/M12 A3036 RMK A01 T00201122  RH  034%=      5-min Rain = 0
KPD2 140503Z 13006KT 02/M12 A3036 RMK A01 T00191122  RH  034%=      5-min Rain = 0
KPD2 140504Z 12005KT 02/M12 A3036 RMK A01 T00181122  RH  034%=      5-min Rain = 0
KPD2 140505Z 12005KT 02/M12 A3036 RMK A01 T00181122  RH  035%=      5-min Rain = 0
KPD2 140506Z 12005KT 02/M12 A3036 RMK A01 T00181122  RH  035%=      5-min Rain = 0
KPD2 140507Z 12004KT 02/M12 A3036 RMK A01 T00171122  RH  035%=      5-min Rain = 0
KPD2 140508Z 12005KT 02/M12 A3036 RMK A01 T00171122  RH  035%=      5-min Rain = 0
KPD2 140509Z 13005KT 02/M12 A3036 RMK A01 T00161122  RH  035%=      5-min Rain = 0
KPD2 140510Z 12004KT 02/M12 A3036 RMK A01 T00171122  RH  035%=      5-min Rain = 0
KPD2 140511Z 12005KT 02/M12 A3036 RMK A01 T00171122  RH  035%=      5-min Rain = 0
KPD2 140512Z 13005KT 02/M12 A3036 RMK A01 T00171122  RH  035%=      5-min Rain = 0
KPD2 140513Z 12005KT 02/M12 A3036 RMK A01 T00161122  RH  035%=      5-min Rain = 0
KPD2 140514Z 12005KT 02/M12 A3036 RMK A01 T00161122  RH  035%=      5-min Rain = 0
KPD2 140515Z 11004KT 02/M12 A3036 RMK A01 T00161123  RH  035%=      5-min Rain = 0
KPD2 140516Z 11005KT 02/M12 A3036 RMK A01 T00151123  RH  035%=      5-min Rain = 0
KPD2 140517Z 11006KT 02/M12 A3036 RMK A01 T00151123  RH  035%=      5-min Rain = 0
KPD2 140518Z 12004KT 02/M12 A3036 RMK A01 T00161123  RH  035%=      5-min Rain = 0
KPD2 140519Z 11005KT 02/M12 A3036 RMK A01 T00161123  RH  035%=      5-min Rain = 0
KPD2 140520Z 12005KT 02/M12 A3036 RMK A01 T00161124  RH  035%=      5-min Rain = 0
KPD2 140521Z 11005KT 02/M12 A3036 RMK A01 T00171124  RH  034%=      5-min Rain = 0
KPD2 140522Z 12005KT 02/M12 A3036 RMK A01 T00161124  RH  034%=      5-min Rain = 0
KPD2 140523Z 12006KT 02/M12 A3036 RMK A01 T00171124  RH  034%=      5-min Rain = 0
KPD2 140524Z 12005KT 02/M12 A3036 RMK A01 T00171124  RH  034%=      5-min Rain = 0
KPD2 140525Z 11005KT 02/M12 A3036 RMK A01 T00171124  RH  034%=      5-min Rain = 0
KPD2 140526Z 12005KT 02/M12 A3036 RMK A01 T00171124  RH  034%=      5-min Rain = 0
KPD2 140527Z 12006KT 02/M12 A3036 RMK A01 T00161124  RH  034%=      5-min Rain = 0
KPD2 140528Z 12006KT 02/M13 A3036 RMK A01 T00161125  RH  034%=      5-min Rain = 0
KPD2 140529Z 12005KT 02/M12 A3036 RMK A01 T00161124  RH  034%=      5-min Rain = 0
KPD2 140530Z 11005KT 02/M13 A3036 RMK A01 T00161125  RH  034%=      5-min Rain = 0
KPD2 140531Z 13005KT 02/M13 A3036 RMK A01 T00161125  RH  034%=      5-min Rain = 0
KPD2 140532Z 12004KT 02/M13 A3036 RMK A01 T00161125  RH  034%=      5-min Rain = 0
KPD2 140533Z 11003KT 02/M13 A3036 RMK A01 T00151125  RH  034%=      5-min Rain = 0
KPD2 140534Z 11003KT 02/M13 A3036 RMK A01 T00151125  RH  034%=      5-min Rain = 0
KPD2 140535Z 11003KT 02/M13 A3036 RMK A01 T00151125  RH  034%=      5-min Rain = 0
KPD2 140536Z 13003KT 02/M13 A3036 RMK A01 T00151125  RH  035%=      5-min Rain = 0
KPD2 140537Z 12003KT 02/M13 A3036 RMK A01 T00151125  RH  035%=      5-min Rain = 0
KPD2 140538Z 12004KT 02/M13 A3036 RMK A01 T00151125  RH  035%=      5-min Rain = 0
KPD2 140539Z 13005KT 01/M13 A3036 RMK A01 T00141125  RH  035%=      5-min Rain = 0
KPD2 140540Z 13005KT 01/M13 A3036 RMK A01 T00141125  RH  035%=      5-min Rain = 0
KPD2 140541Z 13006KT 01/M13 A3036 RMK A01 T00131125  RH  035%=      5-min Rain = 0
KPD2 140542Z 12005KT 01/M13 A3036 RMK A01 T00131125  RH  035%=      5-min Rain = 0
KPD2 140543Z 13005KT 01/M13 A3035 RMK A01 T00141125  RH  035%=      5-min Rain = 0
KPD2 140544Z 13005KT 01/M13 A3035 RMK A01 T00141125  RH  035%=      5-min Rain = 0
KPD2 140545Z 12006KT 01/M13 A3035 RMK A01 T00131125  RH  035%=      5-min Rain = 0
KPD2 140546Z 13005KT 01/M13 A3035 RMK A01 T00131125  RH  035%=      5-min Rain = 0
KPD2 140547Z 13006KT 01/M13 A3035 RMK A01 T00131125  RH  035%=      5-min Rain = 0
KPD2 140548Z 13006KT 01/M13 A3035 RMK A01 T00131126  RH  035%=      5-min Rain = 0
KPD2 140549Z 12005KT 01/M13 A3035 RMK A01 T00131126  RH  035%=      5-min Rain = 0
KPD2 140550Z 12005KT 01/M13 A3035 RMK A01 T00121126  RH  035%=      5-min Rain = 0
KPD2 140551Z 12004KT 01/M13 A3035 RMK A01 T00111126  RH  035%=      5-min Rain = 0
KPD2 140552Z 12004KT 01/M13 A3035 RMK A01 T00111126  RH  035%=      5-min Rain = 0
KPD2 140553Z 12004KT 01/M13 A3035 RMK A01 T00111126  RH  035%=      5-min Rain = 0
KPD2 140554Z 12004KT 01/M13 A3035 RMK A01 T00101126  RH  035%=      5-min Rain = 0
KPD2 140555Z 11003KT 01/M13 A3035 RMK A01 T00101126  RH  036%=      5-min Rain = 0
KPD2 140556Z 11004KT 01/M13 A3035 RMK A01 T00101126  RH  036%=      5-min Rain = 0
KPD2 140557Z 11004KT 01/M13 A3035 RMK A01 T00101126  RH  036%=      5-min Rain = 0
KPD2 140558Z 10006KT 01/M13 A3035 RMK A01 T00101126  RH  036%=      5-min Rain = 0
KPD2 140559Z 10007KT 01/M13 A3035 RMK A01 T00111125  RH  035%=      5-min Rain = 0
KPD2 140600Z 10007KT 01/M13 A3035 RMK A01 T00121125  RH  035%=      5-min Rain = 0

Page generated in 0.0536 seconds.